Observation data for Hobbs on 08/14/2020      Previous  Date       Current Mesonet Observations  Soil Data  Daily Summary Page  Observations in Plain Language
KHO1 140500Z 18013KT 31/07 A3006 RMK A01 T03110067  RH  022%=      5-min Rain = 0
KHO1 140501Z 18012KT 31/07 A3006 RMK A01 T03110068  RH  022%=      5-min Rain = 0
KHO1 140502Z 18013KT 31/07 A3006 RMK A01 T03110068  RH  022%=      5-min Rain = 0
KHO1 140503Z 18012KT 31/07 A3006 RMK A01 T03100068  RH  022%=      5-min Rain = 0
KHO1 140504Z 18013KT 31/07 A3006 RMK A01 T03100068  RH  022%=      5-min Rain = 0
KHO1 140505Z 18013KT 31/07 A3006 RMK A01 T03100068  RH  022%=      5-min Rain = 0
KHO1 140506Z 18013KT 31/07 A3006 RMK A01 T03100068  RH  022%=      5-min Rain = 0
KHO1 140507Z 18011KT 31/07 A3006 RMK A01 T03090068  RH  022%=      5-min Rain = 0
KHO1 140508Z 18012KT 31/07 A3006 RMK A01 T03090068  RH  022%=      5-min Rain = 0
KHO1 140509Z 18012KT 31/07 A3006 RMK A01 T03080069  RH  022%=      5-min Rain = 0
KHO1 140510Z 18012KT 31/07 A3006 RMK A01 T03080068  RH  022%=      5-min Rain = 0
KHO1 140511Z 18012KT 31/07 A3006 RMK A01 T03070068  RH  022%=      5-min Rain = 0
KHO1 140512Z 18011KT 31/07 A3006 RMK A01 T03070068  RH  022%=      5-min Rain = 0
KHO1 140513Z 18012KT 31/07 A3006 RMK A01 T03070069  RH  022%=      5-min Rain = 0
KHO1 140514Z 18010KT 31/07 A3006 RMK A01 T03060069  RH  023%=      5-min Rain = 0
KHO1 140515Z 18010KT 31/07 A3006 RMK A01 T03060069  RH  023%=      5-min Rain = 0
KHO1 140516Z 18011KT 31/07 A3006 RMK A01 T03060069  RH  023%=      5-min Rain = 0
KHO1 140517Z 18012KT 31/07 A3006 RMK A01 T03060069  RH  023%=      5-min Rain = 0
KHO1 140518Z 18012KT 31/07 A3006 RMK A01 T03060069  RH  023%=      5-min Rain = 0
KHO1 140519Z 18011KT 31/07 A3006 RMK A01 T03060069  RH  023%=      5-min Rain = 0
KHO1 140520Z 18012KT 31/07 A3006 RMK A01 T03050069  RH  023%=      5-min Rain = 0
KHO1 140521Z 18011KT 30/07 A3006 RMK A01 T03040069  RH  023%=      5-min Rain = 0
KHO1 140522Z 18011KT 30/07 A3006 RMK A01 T03040069  RH  023%=      5-min Rain = 0
KHO1 140523Z 18011KT 30/07 A3006 RMK A01 T03040070  RH  023%=      5-min Rain = 0
KHO1 140524Z 18011KT 30/07 A3006 RMK A01 T03030070  RH  023%=      5-min Rain = 0
KHO1 140525Z 18012KT 30/07 A3006 RMK A01 T03030069  RH  023%=      5-min Rain = 0
KHO1 140526Z 18011KT 30/07 A3006 RMK A01 T03030070  RH  023%=      5-min Rain = 0
KHO1 140527Z 18012KT 30/07 A3006 RMK A01 T03020070  RH  023%=      5-min Rain = 0
KHO1 140528Z 18011KT 30/07 A3006 RMK A01 T03020070  RH  023%=      5-min Rain = 0
KHO1 140529Z 18012KT 30/07 A3006 RMK A01 T03020070  RH  023%=      5-min Rain = 0
KHO1 140530Z 18012KT 30/07 A3006 RMK A01 T03020070  RH  023%=      5-min Rain = 0
KHO1 140531Z 18013KT 30/07 A3006 RMK A01 T03020070  RH  023%=      5-min Rain = 0
KHO1 140532Z 19011KT 30/07 A3006 RMK A01 T03020070  RH  023%=      5-min Rain = 0
KHO1 140533Z 18012KT 30/07 A3006 RMK A01 T03010070  RH  023%=      5-min Rain = 0
KHO1 140534Z 18012KT 30/07 A3006 RMK A01 T03010070  RH  023%=      5-min Rain = 0
KHO1 140535Z 18013KT 30/07 A3006 RMK A01 T03010070  RH  023%=      5-min Rain = 0
KHO1 140536Z 18011G17KT 30/07 A3006 RMK A01 T03010071  RH  024%=      5-min Rain = 0
KHO1 140537Z 18013KT 30/07 A3006 RMK A01 T03000070  RH  024%=      5-min Rain = 0
KHO1 140538Z 18012KT 30/07 A3006 RMK A01 T03000070  RH  024%=      5-min Rain = 0
KHO1 140539Z 18012KT 30/07 A3006 RMK A01 T03000070  RH  024%=      5-min Rain = 0
KHO1 140540Z 18011KT 30/07 A3006 RMK A01 T02990071  RH  024%=      5-min Rain = 0
KHO1 140541Z 18013KT 30/07 A3006 RMK A01 T02990071  RH  024%=      5-min Rain = 0
KHO1 140542Z 18013KT 30/07 A3006 RMK A01 T02990070  RH  024%=      5-min Rain = 0
KHO1 140543Z 18013KT 30/07 A3006 RMK A01 T02990070  RH  024%=      5-min Rain = 0
KHO1 140544Z 18012KT 30/07 A3006 RMK A01 T02990071  RH  024%=      5-min Rain = 0
KHO1 140545Z 18011KT 30/07 A3006 RMK A01 T02980071  RH  024%=      5-min Rain = 0
KHO1 140546Z 18012KT 30/07 A3006 RMK A01 T02970071  RH  024%=      5-min Rain = 0
KHO1 140547Z 18012KT 30/07 A3006 RMK A01 T02980071  RH  024%=      5-min Rain = 0
KHO1 140548Z 18013KT 30/07 A3006 RMK A01 T02970071  RH  024%=      5-min Rain = 0
KHO1 140549Z 19011KT 30/07 A3006 RMK A01 T02970071  RH  024%=      5-min Rain = 0
KHO1 140550Z 18011KT 30/07 A3006 RMK A01 T02970071  RH  024%=      5-min Rain = 0
KHO1 140551Z 19010KT 30/07 A3006 RMK A01 T02960072  RH  024%=      5-min Rain = 0
KHO1 140552Z 19011KT 30/07 A3006 RMK A01 T02960071  RH  024%=      5-min Rain = 0
KHO1 140553Z 19011KT 30/07 A3006 RMK A01 T02960071  RH  024%=      5-min Rain = 0
KHO1 140554Z 19009KT 30/07 A3006 RMK A01 T02950072  RH  025%=      5-min Rain = 0
KHO1 140555Z 19010KT 29/07 A3006 RMK A01 T02940072  RH  025%=      5-min Rain = 0
KHO1 140556Z 19010KT 29/07 A3006 RMK A01 T02930072  RH  025%=      5-min Rain = 0
KHO1 140557Z 19010KT 29/07 A3006 RMK A01 T02930072  RH  025%=      5-min Rain = 0
KHO1 140558Z 19011KT 29/07 A3006 RMK A01 T02930072  RH  025%=      5-min Rain = 0
KHO1 140559Z 19011KT 29/07 A3006 RMK A01 T02920072  RH  025%=      5-min Rain = 0
KHO1 140600Z 19011KT 29/07 A3006 RMK A01 T02920072  RH  025%=      5-min Rain = 0
KHO1 140601Z 19012KT 29/07 A3006 RMK A01 T02920072  RH  025%=      5-min Rain = 0
KHO1 140602Z 19012KT 29/07 A3006 RMK A01 T02920072  RH  025%=      5-min Rain = 0
KHO1 140603Z 19012KT 29/07 A3006 RMK A01 T02910072  RH  025%=      5-min Rain = 0
KHO1 140604Z 19011KT 29/07 A3006 RMK A01 T02910072  RH  025%=      5-min Rain = 0
KHO1 140605Z 19012KT 29/07 A3006 RMK A01 T02910072  RH  025%=      5-min Rain = 0
KHO1 140606Z 19011KT 29/07 A3006 RMK A01 T02900072  RH  025%=      5-min Rain = 0
KHO1 140607Z 19010KT 29/07 A3006 RMK A01 T02900072  RH  025%=      5-min Rain = 0
KHO1 140608Z 19010KT 29/07 A3006 RMK A01 T02890072  RH  026%=      5-min Rain = 0
KHO1 140609Z 19010KT 29/07 A3006 RMK A01 T02890072  RH  026%=      5-min Rain = 0
KHO1 140610Z 19011KT 29/07 A3006 RMK A01 T02890072  RH  026%=      5-min Rain = 0
KHO1 140611Z 19010KT 29/07 A3006 RMK A01 T02890072  RH  026%=      5-min Rain = 0
KHO1 140612Z 19009KT 29/07 A3006 RMK A01 T02880072  RH  026%=      5-min Rain = 0
KHO1 140613Z 19009KT 29/07 A3006 RMK A01 T02870073  RH  026%=      5-min Rain = 0
KHO1 140614Z 19010KT 29/07 A3006 RMK A01 T02870073  RH  026%=      5-min Rain = 0
KHO1 140615Z 19009KT 29/07 A3006 RMK A01 T02870073  RH  026%=      5-min Rain = 0
KHO1 140616Z 19011KT 29/07 A3006 RMK A01 T02870073  RH  026%=      5-min Rain = 0
KHO1 140617Z 19009KT 29/07 A3006 RMK A01 T02870073  RH  026%=      5-min Rain = 0
KHO1 140618Z 19011KT 29/07 A3006 RMK A01 T02860073  RH  026%=      5-min Rain = 0
KHO1 140619Z 19009KT 29/07 A3006 RMK A01 T02860073  RH  026%=      5-min Rain = 0
KHO1 140620Z 19009KT 29/07 A3006 RMK A01 T02860074  RH  026%=      5-min Rain = 0
KHO1 140621Z 19011KT 29/07 A3006 RMK A01 T02860073  RH  026%=      5-min Rain = 0
KHO1 140622Z 19010KT 29/07 A3006 RMK A01 T02860073  RH  026%=      5-min Rain = 0
KHO1 140623Z 19011KT 29/07 A3006 RMK A01 T02860073  RH  026%=      5-min Rain = 0
KHO1 140624Z 19010KT 29/07 A3006 RMK A01 T02860073  RH  026%=      5-min Rain = 0
KHO1 140625Z 19011KT 29/07 A3006 RMK A01 T02860073  RH  026%=      5-min Rain = 0
KHO1 140626Z 19012KT 29/07 A3006 RMK A01 T02860073  RH  026%=      5-min Rain = 0
KHO1 140627Z 19010KT 29/07 A3006 RMK A01 T02860073  RH  026%=      5-min Rain = 0
KHO1 140628Z 19009KT 29/07 A3006 RMK A01 T02850073  RH  026%=      5-min Rain = 0
KHO1 140629Z 19011KT 29/07 A3006 RMK A01 T02850073  RH  026%=      5-min Rain = 0
KHO1 140630Z 19009KT 29/07 A3006 RMK A01 T02850073  RH  026%=      5-min Rain = 0
KHO1 140631Z 19009KT 28/07 A3006 RMK A01 T02840074  RH  026%=      5-min Rain = 0
KHO1 140632Z 19010KT 28/07 A3006 RMK A01 T02840074  RH  027%=      5-min Rain = 0
KHO1 140633Z 19010KT 28/07 A3006 RMK A01 T02840073  RH  027%=      5-min Rain = 0
KHO1 140634Z 19011KT 28/07 A3006 RMK A01 T02840074  RH  027%=      5-min Rain = 0
KHO1 140635Z 19011KT 28/07 A3006 RMK A01 T02840074  RH  027%=      5-min Rain = 0
KHO1 140636Z 19012KT 28/07 A3006 RMK A01 T02840074  RH  027%=      5-min Rain = 0
KHO1 140637Z 19012KT 28/07 A3006 RMK A01 T02840074  RH  027%=      5-min Rain = 0
KHO1 140638Z 19012KT 28/07 A3006 RMK A01 T02840074  RH  027%=      5-min Rain = 0
KHO1 140639Z 19011KT 28/07 A3006 RMK A01 T02840074  RH  027%=      5-min Rain = 0
KHO1 140640Z 19013KT 28/07 A3006 RMK A01 T02840074  RH  027%=      5-min Rain = 0
KHO1 140641Z 19012KT 28/07 A3006 RMK A01 T02840074  RH  027%=      5-min Rain = 0
KHO1 140642Z 19012KT 28/07 A3006 RMK A01 T02830074  RH  027%=      5-min Rain = 0
KHO1 140643Z 19011KT 28/08 A3006 RMK A01 T02830075  RH  027%=      5-min Rain = 0
KHO1 140644Z 19011KT 28/08 A3006 RMK A01 T02820075  RH  027%=      5-min Rain = 0
KHO1 140645Z 19011KT 28/08 A3006 RMK A01 T02820075  RH  027%=      5-min Rain = 0
KHO1 140646Z 19011KT 28/08 A3006 RMK A01 T02820075  RH  027%=      5-min Rain = 0
KHO1 140647Z 19010KT 28/08 A3006 RMK A01 T02810075  RH  027%=      5-min Rain = 0
KHO1 140648Z 19010KT 28/08 A3006 RMK A01 T02810075  RH  027%=      5-min Rain = 0
KHO1 140649Z 19012KT 28/08 A3006 RMK A01 T02810075  RH  027%=      5-min Rain = 0
KHO1 140650Z 18011KT 28/08 A3006 RMK A01 T02810075  RH  027%=      5-min Rain = 0
KHO1 140651Z 19012KT 28/08 A3006 RMK A01 T02810075  RH  027%=      5-min Rain = 0
KHO1 140652Z 18011KT 28/08 A3006 RMK A01 T02810076  RH  027%=      5-min Rain = 0
KHO1 140653Z 19012KT 28/08 A3006 RMK A01 T02810075  RH  027%=      5-min Rain = 0
KHO1 140654Z 19012KT 28/08 A3006 RMK A01 T02810075  RH  027%=      5-min Rain = 0
KHO1 140655Z 19012KT 28/08 A3006 RMK A01 T02810075  RH  027%=      5-min Rain = 0
KHO1 140656Z 19012KT 28/08 A3006 RMK A01 T02820075  RH  027%=      5-min Rain = 0
KHO1 140657Z 19012KT 28/08 A3006 RMK A01 T02820075  RH  027%=      5-min Rain = 0
KHO1 140658Z 19011KT 28/08 A3006 RMK A01 T02810076  RH  027%=      5-min Rain = 0
KHO1 140659Z 19012KT 28/08 A3006 RMK A01 T02810076  RH  027%=      5-min Rain = 0
KHO1 140700Z 19010KT 28/08 A3006 RMK A01 T02810076  RH  027%=      5-min Rain = 0
KHO1 140701Z 19011KT 28/08 A3006 RMK A01 T02800076  RH  028%=      5-min Rain = 0
KHO1 140702Z 19011KT 28/08 A3006 RMK A01 T02800076  RH  028%=      5-min Rain = 0
KHO1 140703Z 19012KT 28/08 A3006 RMK A01 T02800076  RH  028%=      5-min Rain = 0
KHO1 140704Z 19012KT 28/08 A3006 RMK A01 T02810076  RH  027%=      5-min Rain = 0
KHO1 140705Z 19010KT 28/08 A3006 RMK A01 T02800076  RH  028%=      5-min Rain = 0
KHO1 140706Z 19011KT 28/08 A3006 RMK A01 T02800076  RH  028%=      5-min Rain = 0
KHO1 140707Z 19010KT 28/08 A3006 RMK A01 T02800077  RH  028%=      5-min Rain = 0
KHO1 140708Z 19010KT 28/08 A3006 RMK A01 T02790077  RH  028%=      5-min Rain = 0
KHO1 140709Z 19011KT 28/08 A3006 RMK A01 T02790077  RH  028%=      5-min Rain = 0
KHO1 140710Z 19012KT 28/08 A3006 RMK A01 T02790077  RH  028%=      5-min Rain = 0
KHO1 140711Z 19010KT 28/08 A3006 RMK A01 T02780077  RH  028%=      5-min Rain = 0
KHO1 140712Z 19010KT 28/08 A3006 RMK A01 T02780077  RH  028%=      5-min Rain = 0
KHO1 140713Z 19011KT 28/08 A3006 RMK A01 T02780077  RH  028%=      5-min Rain = 0
KHO1 140714Z 19011KT 28/08 A3006 RMK A01 T02770077  RH  028%=      5-min Rain = 0
KHO1 140715Z 19011KT 28/08 A3006 RMK A01 T02770078  RH  028%=      5-min Rain = 0
KHO1 140716Z 19010KT 28/08 A3006 RMK A01 T02770078  RH  028%=      5-min Rain = 0
KHO1 140717Z 19010KT 28/08 A3006 RMK A01 T02770078  RH  028%=      5-min Rain = 0
KHO1 140718Z 19009KT 28/08 A3006 RMK A01 T02760078  RH  029%=      5-min Rain = 0
KHO1 140719Z 19010KT 28/08 A3006 RMK A01 T02760078  RH  029%=      5-min Rain = 0
KHO1 140720Z 19012KT 28/08 A3006 RMK A01 T02760078  RH  029%=      5-min Rain = 0
KHO1 140721Z 19012KT 28/08 A3006 RMK A01 T02760078  RH  029%=      5-min Rain = 0
KHO1 140722Z 19012KT 28/08 A3006 RMK A01 T02760078  RH  029%=      5-min Rain = 0
KHO1 140723Z 19012KT 28/08 A3006 RMK A01 T02760078  RH  029%=      5-min Rain = 0
KHO1 140724Z 19010KT 28/08 A3006 RMK A01 T02760079  RH  029%=      5-min Rain = 0
KHO1 140725Z 19011KT 28/08 A3006 RMK A01 T02760079  RH  029%=      5-min Rain = 0
KHO1 140726Z 19010G15KT 28/08 A3006 RMK A01 T02750079  RH  029%=      5-min Rain = 0
KHO1 140727Z 19011KT 28/08 A3006 RMK A01 T02750079  RH  029%=      5-min Rain = 0
KHO1 140728Z 19011KT 28/08 A3006 RMK A01 T02750079  RH  029%=      5-min Rain = 0
KHO1 140729Z 19010KT 28/08 A3006 RMK A01 T02750079  RH  029%=      5-min Rain = 0
KHO1 140730Z 19010KT 28/08 A3006 RMK A01 T02750079  RH  029%=      5-min Rain = 0
KHO1 140731Z 19010KT 27/08 A3006 RMK A01 T02740079  RH  029%=      5-min Rain = 0
KHO1 140732Z 19011KT 27/08 A3006 RMK A01 T02740080  RH  029%=      5-min Rain = 0
KHO1 140733Z 19012KT 27/08 A3006 RMK A01 T02740080  RH  029%=      5-min Rain = 0
KHO1 140734Z 19009KT 27/08 A3006 RMK A01 T02740080  RH  029%=      5-min Rain = 0
KHO1 140735Z 19010KT 27/08 A3006 RMK A01 T02730080  RH  029%=      5-min Rain = 0
KHO1 140736Z 19010KT 27/08 A3006 RMK A01 T02730080  RH  029%=      5-min Rain = 0
KHO1 140737Z 19010KT 27/08 A3006 RMK A01 T02730080  RH  030%=      5-min Rain = 0
KHO1 140738Z 19009KT 27/08 A3006 RMK A01 T02730080  RH  030%=      5-min Rain = 0
KHO1 140739Z 19009KT 27/08 A3006 RMK A01 T02720081  RH  030%=      5-min Rain = 0
KHO1 140740Z 19010KT 27/08 A3006 RMK A01 T02720081  RH  030%=      5-min Rain = 0
KHO1 140741Z 19011KT 27/08 A3006 RMK A01 T02720081  RH  030%=      5-min Rain = 0
KHO1 140742Z 19011KT 27/08 A3006 RMK A01 T02720081  RH  030%=      5-min Rain = 0
KHO1 140743Z 19009KT 27/08 A3006 RMK A01 T02710082  RH  030%=      5-min Rain = 0
KHO1 140744Z 19010KT 27/08 A3006 RMK A01 T02710081  RH  030%=      5-min Rain = 0
KHO1 140745Z 19010KT 27/08 A3006 RMK A01 T02710081  RH  030%=      5-min Rain = 0
KHO1 140746Z 19010KT 27/08 A3006 RMK A01 T02700081  RH  030%=      5-min Rain = 0
KHO1 140747Z 19010KT 27/08 A3006 RMK A01 T02700081  RH  030%=      5-min Rain = 0
KHO1 140748Z 19010KT 27/08 A3006 RMK A01 T02700081  RH  030%=      5-min Rain = 0
KHO1 140749Z 19010KT 27/08 A3006 RMK A01 T02700082  RH  030%=      5-min Rain = 0
KHO1 140750Z 19009KT 27/08 A3006 RMK A01 T02690082  RH  031%=      5-min Rain = 0
KHO1 140751Z 19010KT 27/08 A3006 RMK A01 T02690082  RH  031%=      5-min Rain = 0
KHO1 140752Z 19011KT 27/08 A3006 RMK A01 T02690082  RH  030%=      5-min Rain = 0
KHO1 140753Z 19011KT 27/08 A3006 RMK A01 T02700082  RH  031%=      5-min Rain = 0
KHO1 140754Z 19011KT 27/08 A3006 RMK A01 T02690082  RH  031%=      5-min Rain = 0
KHO1 140755Z 19010KT 27/08 A3006 RMK A01 T02690082  RH  031%=      5-min Rain = 0
KHO1 140756Z 19010KT 27/08 A3006 RMK A01 T02690082  RH  031%=      5-min Rain = 0
KHO1 140757Z 19009KT 27/08 A3006 RMK A01 T02680082  RH  031%=      5-min Rain = 0
KHO1 140758Z 19010KT 27/08 A3006 RMK A01 T02680082  RH  031%=      5-min Rain = 0
KHO1 140759Z 20009KT 27/08 A3006 RMK A01 T02680082  RH  031%=      5-min Rain = 0
KHO1 140800Z 20010KT 27/08 A3006 RMK A01 T02670083  RH  031%=      5-min Rain = 0
KHO1 140801Z 20009KT 27/08 A3006 RMK A01 T02670083  RH  031%=      5-min Rain = 0
KHO1 140802Z 20010KT 27/08 A3006 RMK A01 T02660083  RH  031%=      5-min Rain = 0
KHO1 140803Z 20009KT 27/08 A3006 RMK A01 T02660083  RH  031%=      5-min Rain = 0
KHO1 140804Z 20009KT 27/08 A3006 RMK A01 T02660083  RH  031%=      5-min Rain = 0
KHO1 140805Z 20007KT 27/08 A3006 RMK A01 T02660083  RH  032%=      5-min Rain = 0
KHO1 140806Z 20008KT 27/08 A3006 RMK A01 T02650083  RH  032%=      5-min Rain = 0
KHO1 140807Z 20008KT 27/08 A3006 RMK A01 T02650084  RH  032%=      5-min Rain = 0
KHO1 140808Z 19008KT 27/08 A3006 RMK A01 T02650084  RH  032%=      5-min Rain = 0
KHO1 140809Z 20010KT 26/08 A3006 RMK A01 T02640084  RH  032%=      5-min Rain = 0
KHO1 140810Z 20008KT 27/08 A3006 RMK A01 T02650084  RH  032%=      5-min Rain = 0
KHO1 140811Z 19009KT 27/08 A3006 RMK A01 T02650084  RH  032%=      5-min Rain = 0
KHO1 140812Z 19007KT 27/08 A3006 RMK A01 T02650084  RH  032%=      5-min Rain = 0
KHO1 140813Z 19008KT 26/08 A3006 RMK A01 T02640084  RH  032%=      5-min Rain = 0
KHO1 140814Z 20007KT 26/09 A3006 RMK A01 T02630085  RH  032%=      5-min Rain = 0
KHO1 140815Z 20008KT 26/08 A3006 RMK A01 T02630084  RH  032%=      5-min Rain = 0
KHO1 140816Z 20007KT 26/09 A3006 RMK A01 T02630085  RH  032%=      5-min Rain = 0
KHO1 140817Z 20008KT 26/09 A3006 RMK A01 T02630085  RH  032%=      5-min Rain = 0
KHO1 140818Z 20008KT 26/09 A3006 RMK A01 T02630085  RH  032%=      5-min Rain = 0
KHO1 140819Z 20007KT 26/09 A3006 RMK A01 T02630085  RH  032%=      5-min Rain = 0
KHO1 140820Z 20008KT 26/09 A3006 RMK A01 T02630085  RH  032%=      5-min Rain = 0
KHO1 140821Z 20008KT 26/09 A3006 RMK A01 T02630085  RH  032%=      5-min Rain = 0
KHO1 140822Z 19008KT 26/09 A3006 RMK A01 T02620085  RH  033%=      5-min Rain = 0
KHO1 140823Z 20007KT 26/09 A3006 RMK A01 T02620086  RH  033%=      5-min Rain = 0
KHO1 140824Z 19008KT 26/09 A3006 RMK A01 T02610085  RH  033%=      5-min Rain = 0
KHO1 140825Z 19008KT 26/09 A3006 RMK A01 T02610086  RH  033%=      5-min Rain = 0
KHO1 140826Z 19008KT 26/09 A3006 RMK A01 T02610085  RH  033%=      5-min Rain = 0
KHO1 140827Z 19008KT 26/09 A3006 RMK A01 T02610086  RH  033%=      5-min Rain = 0
KHO1 140828Z 19008KT 26/09 A3006 RMK A01 T02600086  RH  033%=      5-min Rain = 0
KHO1 140829Z 19008KT 26/09 A3006 RMK A01 T02610086  RH  033%=      5-min Rain = 0
KHO1 140830Z 19007KT 26/09 A3006 RMK A01 T02600086  RH  033%=      5-min Rain = 0
KHO1 140831Z 19007KT 26/09 A3006 RMK A01 T02600086  RH  033%=      5-min Rain = 0
KHO1 140832Z 20008KT 26/09 A3006 RMK A01 T02600086  RH  033%=      5-min Rain = 0
KHO1 140833Z 20007KT 26/09 A3006 RMK A01 T02590087  RH  033%=      5-min Rain = 0
KHO1 140834Z 20008KT 26/09 A3006 RMK A01 T02590087  RH  034%=      5-min Rain = 0
KHO1 140835Z 20008KT 26/09 A3006 RMK A01 T02590087  RH  034%=      5-min Rain = 0
KHO1 140836Z 19007KT 26/09 A3006 RMK A01 T02600087  RH  034%=      5-min Rain = 0
KHO1 140837Z 19006KT 26/09 A3006 RMK A01 T02590087  RH  034%=      5-min Rain = 0
KHO1 140838Z 19008KT 26/09 A3006 RMK A01 T02580087  RH  034%=      5-min Rain = 0
KHO1 140839Z 19007KT 26/09 A3006 RMK A01 T02590087  RH  034%=      5-min Rain = 0
KHO1 140840Z 19007KT 26/09 A3006 RMK A01 T02580087  RH  034%=      5-min Rain = 0
KHO1 140841Z 18007KT 26/09 A3006 RMK A01 T02580088  RH  034%=      5-min Rain = 0
KHO1 140842Z 18006KT 26/09 A3006 RMK A01 T02570088  RH  034%=      5-min Rain = 0
KHO1 140843Z 19007KT 26/09 A3006 RMK A01 T02580088  RH  034%=      5-min Rain = 0
KHO1 140844Z 19006KT 26/09 A3006 RMK A01 T02580088  RH  034%=      5-min Rain = 0
KHO1 140845Z 19006KT 26/09 A3006 RMK A01 T02580088  RH  034%=      5-min Rain = 0
KHO1 140846Z 18006KT 26/09 A3006 RMK A01 T02570088  RH  034%=      5-min Rain = 0
KHO1 140847Z 19006KT 26/09 A3006 RMK A01 T02570089  RH  034%=      5-min Rain = 0
KHO1 140848Z 18008KT 26/09 A3006 RMK A01 T02570089  RH  034%=      5-min Rain = 0
KHO1 140849Z 19007KT 26/09 A3006 RMK A01 T02580089  RH  034%=      5-min Rain = 0
KHO1 140850Z 18006KT 26/09 A3006 RMK A01 T02580089  RH  034%=      5-min Rain = 0
KHO1 140851Z 18006KT 26/09 A3006 RMK A01 T02570090  RH  035%=      5-min Rain = 0
KHO1 140852Z 18006KT 26/09 A3006 RMK A01 T02570090  RH  035%=      5-min Rain = 0
KHO1 140853Z 18005KT 26/09 A3006 RMK A01 T02560091  RH  035%=      5-min Rain = 0
KHO1 140854Z 18006KT 26/09 A3006 RMK A01 T02560091  RH  035%=      5-min Rain = 0
KHO1 140855Z 18005KT 26/09 A3006 RMK A01 T02560092  RH  035%=      5-min Rain = 0
KHO1 140856Z 18005KT 26/09 A3006 RMK A01 T02550092  RH  036%=      5-min Rain = 0
KHO1 140857Z 18005KT 26/09 A3006 RMK A01 T02550093  RH  036%=      5-min Rain = 0
KHO1 140858Z 18005KT 26/09 A3006 RMK A01 T02550093  RH  036%=      5-min Rain = 0
KHO1 140859Z 18006KT 26/09 A3006 RMK A01 T02550093  RH  036%=      5-min Rain = 0
KHO1 140900Z 19004KT 25/09 A3006 RMK A01 T02540093  RH  036%=      5-min Rain = 0
KHO1 140901Z 19005KT 25/09 A3006 RMK A01 T02540093  RH  036%=      5-min Rain = 0
KHO1 140902Z 19005KT 25/09 A3006 RMK A01 T02540094  RH  036%=      5-min Rain = 0
KHO1 140903Z 19006KT 25/09 A3006 RMK A01 T02540094  RH  036%=      5-min Rain = 0
KHO1 140904Z 19006KT 25/09 A3006 RMK A01 T02540094  RH  036%=      5-min Rain = 0
KHO1 140905Z 19005KT 25/09 A3006 RMK A01 T02540094  RH  036%=      5-min Rain = 0
KHO1 140906Z 19005KT 25/10 A3006 RMK A01 T02530095  RH  037%=      5-min Rain = 0
KHO1 140907Z 19006KT 25/10 A3006 RMK A01 T02520095  RH  037%=      5-min Rain = 0
KHO1 140908Z 19006KT 25/10 A3006 RMK A01 T02530095  RH  037%=      5-min Rain = 0
KHO1 140909Z 19006KT 25/10 A3006 RMK A01 T02520095  RH  037%=      5-min Rain = 0
KHO1 140910Z 19006KT 25/10 A3006 RMK A01 T02530095  RH  037%=      5-min Rain = 0
KHO1 140911Z 19007KT 25/10 A3006 RMK A01 T02530095  RH  037%=      5-min Rain = 0
KHO1 140912Z 18006KT 25/10 A3006 RMK A01 T02530095  RH  037%=      5-min Rain = 0
KHO1 140913Z 18006KT 25/10 A3006 RMK A01 T02530096  RH  037%=      5-min Rain = 0
KHO1 140914Z 18006KT 25/10 A3006 RMK A01 T02530096  RH  037%=      5-min Rain = 0
KHO1 140915Z 19006KT 25/10 A3006 RMK A01 T02530096  RH  037%=      5-min Rain = 0
KHO1 140916Z 19007KT 25/10 A3006 RMK A01 T02530096  RH  037%=      5-min Rain = 0
KHO1 140917Z 19005KT 25/10 A3006 RMK A01 T02530096  RH  037%=      5-min Rain = 0
KHO1 140918Z 18007KT 25/10 A3006 RMK A01 T02530096  RH  037%=      5-min Rain = 0
KHO1 140919Z 19006KT 25/10 A3006 RMK A01 T02530097  RH  037%=      5-min Rain = 0
KHO1 140920Z 19006KT 25/10 A3006 RMK A01 T02520097  RH  037%=      5-min Rain = 0
KHO1 140921Z 19006KT 25/10 A3006 RMK A01 T02520096  RH  037%=      5-min Rain = 0
KHO1 140922Z 19006KT 25/10 A3006 RMK A01 T02520096  RH  037%=      5-min Rain = 0
KHO1 140923Z 19006KT 25/10 A3006 RMK A01 T02520097  RH  037%=      5-min Rain = 0
KHO1 140924Z 20006KT 25/10 A3006 RMK A01 T02520097  RH  037%=      5-min Rain = 0
KHO1 140925Z 20006KT 25/10 A3006 RMK A01 T02520097  RH  037%=      5-min Rain = 0
KHO1 140926Z 20006KT 25/10 A3006 RMK A01 T02520097  RH  037%=      5-min Rain = 0
KHO1 140927Z 20007KT 25/10 A3006 RMK A01 T02520097  RH  037%=      5-min Rain = 0
KHO1 140928Z 20005KT 25/10 A3006 RMK A01 T02530098  RH  037%=      5-min Rain = 0
KHO1 140929Z 21005KT 25/10 A3006 RMK A01 T02530098  RH  038%=      5-min Rain = 0
KHO1 140930Z 21005KT 25/10 A3006 RMK A01 T02520098  RH  038%=      5-min Rain = 0
KHO1 140931Z 21005KT 25/10 A3006 RMK A01 T02520098  RH  038%=      5-min Rain = 0
KHO1 140932Z 21005KT 25/10 A3006 RMK A01 T02520098  RH  038%=      5-min Rain = 0
KHO1 140933Z 21005KT 25/10 A3006 RMK A01 T02520098  RH  038%=      5-min Rain = 0
KHO1 140934Z 21005KT 25/10 A3006 RMK A01 T02520098  RH  038%=      5-min Rain = 0
KHO1 140935Z 21005KT 25/10 A3006 RMK A01 T02520098  RH  038%=      5-min Rain = 0
KHO1 140936Z 22004KT 25/10 A3006 RMK A01 T02520098  RH  038%=      5-min Rain = 0
KHO1 140937Z 21004KT 25/10 A3006 RMK A01 T02520098  RH  038%=      5-min Rain = 0
KHO1 140938Z 21005KT 25/10 A3006 RMK A01 T02520098  RH  038%=      5-min Rain = 0
KHO1 140939Z 21005KT 25/10 A3006 RMK A01 T02520098  RH  038%=      5-min Rain = 0
KHO1 140940Z 21005KT 25/10 A3006 RMK A01 T02510099  RH  038%=      5-min Rain = 0
KHO1 140941Z 22005KT 25/10 A3006 RMK A01 T02510099  RH  038%=      5-min Rain = 0
KHO1 140942Z 22005KT 25/10 A3006 RMK A01 T02510099  RH  038%=      5-min Rain = 0
KHO1 140943Z 22005KT 25/10 A3006 RMK A01 T02510099  RH  038%=      5-min Rain = 0
KHO1 140944Z 22005KT 25/10 A3006 RMK A01 T02500099  RH  038%=      5-min Rain = 0
KHO1 140945Z 22004KT 25/10 A3006 RMK A01 T02500099  RH  039%=      5-min Rain = 0
KHO1 140946Z 22005KT 25/10 A3006 RMK A01 T02500099  RH  039%=      5-min Rain = 0
KHO1 140947Z 22005KT 25/10 A3006 RMK A01 T02500100  RH  039%=      5-min Rain = 0
KHO1 140948Z 22005KT 25/10 A3006 RMK A01 T02500100  RH  039%=      5-min Rain = 0
KHO1 140949Z 21005KT 25/10 A3006 RMK A01 T02490100  RH  039%=      5-min Rain = 0
KHO1 140950Z 21005KT 25/10 A3006 RMK A01 T02490100  RH  039%=      5-min Rain = 0
KHO1 140951Z 21005KT 25/10 A3006 RMK A01 T02490100  RH  039%=      5-min Rain = 0
KHO1 140952Z 21005KT 25/10 A3006 RMK A01 T02490101  RH  039%=      5-min Rain = 0
KHO1 140953Z 21005KT 25/10 A3006 RMK A01 T02480101  RH  039%=      5-min Rain = 0
KHO1 140954Z 21005KT 25/10 A3006 RMK A01 T02480101  RH  040%=      5-min Rain = 0
KHO1 140955Z 21005KT 25/10 A3006 RMK A01 T02470101  RH  040%=      5-min Rain = 0
KHO1 140956Z 21005KT 25/10 A3006 RMK A01 T02470101  RH  040%=      5-min Rain = 0
KHO1 140957Z 21005KT 25/10 A3006 RMK A01 T02470101  RH  040%=      5-min Rain = 0
KHO1 140958Z 21005KT 25/10 A3006 RMK A01 T02470101  RH  040%=      5-min Rain = 0
KHO1 140959Z 21005KT 25/10 A3006 RMK A01 T02470102  RH  040%=      5-min Rain = 0
KHO1 141000Z 21004KT 25/10 A3006 RMK A01 T02460102  RH  040%=      5-min Rain = 0
KHO1 141001Z 21004KT 25/10 A3006 RMK A01 T02460102  RH  040%=      5-min Rain = 0
KHO1 141002Z 21004KT 25/10 A3006 RMK A01 T02460102  RH  040%=      5-min Rain = 0
KHO1 141003Z 22004KT 25/10 A3006 RMK A01 T02460102  RH  040%=      5-min Rain = 0
KHO1 141004Z 22004KT 25/10 A3006 RMK A01 T02460103  RH  040%=      5-min Rain = 0
KHO1 141005Z 23004KT 25/10 A3006 RMK A01 T02460103  RH  041%=      5-min Rain = 0
KHO1 141006Z 23004KT 25/10 A3006 RMK A01 T02460103  RH  040%=      5-min Rain = 0
KHO1 141007Z 23004KT 25/10 A3006 RMK A01 T02460103  RH  040%=      5-min Rain = 0
KHO1 141008Z 23004KT 25/10 A3006 RMK A01 T02460103  RH  040%=      5-min Rain = 0
KHO1 141009Z 23004KT 25/10 A3006 RMK A01 T02460103  RH  040%=      5-min Rain = 0
KHO1 141010Z 23004KT 25/10 A3006 RMK A01 T02460104  RH  041%=      5-min Rain = 0
KHO1 141011Z 22004KT 25/10 A3006 RMK A01 T02460104  RH  041%=      5-min Rain = 0
KHO1 141012Z 22004KT 25/10 A3006 RMK A01 T02460104  RH  041%=      5-min Rain = 0
KHO1 141013Z 22004KT 25/10 A3006 RMK A01 T02470103  RH  040%=      5-min Rain = 0
KHO1 141014Z 22004KT 25/10 A3006 RMK A01 T02470102  RH  040%=      5-min Rain = 0
KHO1 141015Z 21004KT 25/10 A3006 RMK A01 T02470102  RH  040%=      5-min Rain = 0
KHO1 141016Z 21004KT 25/10 A3006 RMK A01 T02470103  RH  040%=      5-min Rain = 0
KHO1 141017Z 20003KT 25/10 A3006 RMK A01 T02470104  RH  040%=      5-min Rain = 0
KHO1 141018Z 20004KT 25/10 A3006 RMK A01 T02470104  RH  041%=      5-min Rain = 0
KHO1 141019Z 19004KT 25/11 A3006 RMK A01 T02460105  RH  041%=      5-min Rain = 0
KHO1 141020Z 20004KT 25/11 A3006 RMK A01 T02450105  RH  041%=      5-min Rain = 0
KHO1 141021Z 20004KT 25/11 A3006 RMK A01 T02450105  RH  041%=      5-min Rain = 0
KHO1 141022Z 20004KT 25/11 A3006 RMK A01 T02450105  RH  041%=      5-min Rain = 0
KHO1 141023Z 20004KT 25/11 A3006 RMK A01 T02450105  RH  041%=      5-min Rain = 0
KHO1 141024Z 20004KT 25/11 A3006 RMK A01 T02450105  RH  041%=      5-min Rain = 0
KHO1 141025Z 20003KT 25/11 A3006 RMK A01 T02450106  RH  041%=      5-min Rain = 0
KHO1 141026Z 20003KT 25/11 A3006 RMK A01 T02450105  RH  041%=      5-min Rain = 0
KHO1 141027Z 20003KT 25/11 A3006 RMK A01 T02460106  RH  041%=      5-min Rain = 0
KHO1 141028Z 21003KT 25/11 A3006 RMK A01 T02450105  RH  041%=      5-min Rain = 0
KHO1 141029Z 20003KT 25/11 A3006 RMK A01 T02450105  RH  041%=      5-min Rain = 0
KHO1 141030Z 20003KT 25/11 A3006 RMK A01 T02450105  RH  041%=      5-min Rain = 0
KHO1 141031Z 20003KT 25/11 A3006 RMK A01 T02450105  RH  041%=      5-min Rain = 0
KHO1 141032Z 20003KT 25/11 A3006 RMK A01 T02450106  RH  041%=      5-min Rain = 0
KHO1 141033Z 20003KT 25/11 A3006 RMK A01 T02450106  RH  041%=      5-min Rain = 0
KHO1 141034Z 20003KT 25/11 A3006 RMK A01 T02450105  RH  041%=      5-min Rain = 0
KHO1 141035Z 20003KT 25/11 A3006 RMK A01 T02450106  RH  041%=      5-min Rain = 0
KHO1 141036Z 20003KT 25/11 A3006 RMK A01 T02450106  RH  042%=      5-min Rain = 0
KHO1 141037Z 20003KT 25/11 A3006 RMK A01 T02450106  RH  042%=      5-min Rain = 0
KHO1 141038Z 20003KT 25/11 A3006 RMK A01 T02450106  RH  042%=      5-min Rain = 0
KHO1 141039Z 19003KT 25/11 A3006 RMK A01 T02450107  RH  042%=      5-min Rain = 0
KHO1 141040Z 19003KT 25/11 A3006 RMK A01 T02450107  RH  042%=      5-min Rain = 0
KHO1 141041Z 18003KT 24/11 A3006 RMK A01 T02440107  RH  042%=      5-min Rain = 0
KHO1 141042Z 17003KT 24/11 A3006 RMK A01 T02440106  RH  042%=      5-min Rain = 0
KHO1 141043Z 17004KT 24/11 A3006 RMK A01 T02440107  RH  042%=      5-min Rain = 0
KHO1 141044Z 17004KT 24/11 A3006 RMK A01 T02440107  RH  042%=      5-min Rain = 0
KHO1 141045Z 17004KT 25/11 A3006 RMK A01 T02450108  RH  042%=      5-min Rain = 0
KHO1 141046Z 17004KT 25/11 A3006 RMK A01 T02450109  RH  042%=      5-min Rain = 0
KHO1 141047Z 17004KT 25/11 A3006 RMK A01 T02450108  RH  042%=      5-min Rain = 0
KHO1 141048Z 17004KT 25/11 A3006 RMK A01 T02460107  RH  042%=      5-min Rain = 0
KHO1 141049Z 17004KT 25/11 A3006 RMK A01 T02470108  RH  042%=      5-min Rain = 0
KHO1 141050Z 16004KT 25/11 A3006 RMK A01 T02470108  RH  042%=      5-min Rain = 0
KHO1 141051Z 17004KT 25/11 A3006 RMK A01 T02470108  RH  042%=      5-min Rain = 0
KHO1 141052Z 17004KT 25/11 A3006 RMK A01 T02470108  RH  042%=      5-min Rain = 0
KHO1 141053Z 17004KT 25/11 A3006 RMK A01 T02470108  RH  042%=      5-min Rain = 0
KHO1 141054Z 17004KT 25/11 A3006 RMK A01 T02480108  RH  041%=      5-min Rain = 0
KHO1 141055Z 18003KT 25/11 A3006 RMK A01 T02490108  RH  041%=      5-min Rain = 0
KHO1 141056Z 18004KT 25/11 A3006 RMK A01 T02490108  RH  041%=      5-min Rain = 0
KHO1 141057Z 18004KT 25/11 A3006 RMK A01 T02490108  RH  041%=      5-min Rain = 0
KHO1 141058Z 19004KT 25/11 A3006 RMK A01 T02490108  RH  041%=      5-min Rain = 0
KHO1 141059Z 20004KT 25/11 A3006 RMK A01 T02480108  RH  041%=      5-min Rain = 0
KHO1 141100Z 20003KT 25/11 A3006 RMK A01 T02480108  RH  041%=      5-min Rain = 0
KHO1 141101Z 20003KT 25/11 A3006 RMK A01 T02480108  RH  041%=      5-min Rain = 0
KHO1 141102Z 21003KT 25/11 A3006 RMK A01 T02480108  RH  041%=      5-min Rain = 0
KHO1 141103Z 19003KT 25/11 A3006 RMK A01 T02480108  RH  041%=      5-min Rain = 0
KHO1 141104Z 18003KT 25/11 A3006 RMK A01 T02470109  RH  042%=      5-min Rain = 0
KHO1 141105Z 19003KT 25/11 A3006 RMK A01 T02470109  RH  042%=      5-min Rain = 0
KHO1 141106Z 20003KT 25/11 A3006 RMK A01 T02470110  RH  042%=      5-min Rain = 0
KHO1 141107Z 20003KT 25/11 A3006 RMK A01 T02470109  RH  042%=      5-min Rain = 0
KHO1 141108Z 19003KT 25/11 A3006 RMK A01 T02470109  RH  042%=      5-min Rain = 0
KHO1 141109Z 20003KT 25/11 A3007 RMK A01 T02460109  RH  042%=      5-min Rain = 0
KHO1 141110Z 20003KT 25/11 A3006 RMK A01 T02460109  RH  042%=      5-min Rain = 0
KHO1 141111Z 19003KT 25/11 A3006 RMK A01 T02460109  RH  042%=      5-min Rain = 0
KHO1 141112Z 18003KT 25/11 A3006 RMK A01 T02460109  RH  042%=      5-min Rain = 0
KHO1 141113Z 18004KT 25/11 A3006 RMK A01 T02460109  RH  042%=      5-min Rain = 0
KHO1 141114Z 19004KT 25/11 A3006 RMK A01 T02460109  RH  042%=      5-min Rain = 0
KHO1 141115Z 19004KT 25/11 A3006 RMK A01 T02460110  RH  042%=      5-min Rain = 0
KHO1 141116Z 19004KT 25/11 A3006 RMK A01 T02460111  RH  043%=      5-min Rain = 0
KHO1 141117Z 20004KT 25/11 A3006 RMK A01 T02460110  RH  042%=      5-min Rain = 0
KHO1 141118Z 20003KT 25/11 A3006 RMK A01 T02460110  RH  042%=      5-min Rain = 0
KHO1 141119Z 20004KT 25/11 A3006 RMK A01 T02460111  RH  043%=      5-min Rain = 0
KHO1 141120Z 19004KT 25/11 A3006 RMK A01 T02460110  RH  042%=      5-min Rain = 0
KHO1 141121Z 18005KT 25/11 A3006 RMK A01 T02460111  RH  043%=      5-min Rain = 0
KHO1 141122Z 18005KT 25/11 A3006 RMK A01 T02460111  RH  043%=      5-min Rain = 0
KHO1 141123Z 18005KT 25/11 A3006 RMK A01 T02460110  RH  042%=      5-min Rain = 0
KHO1 141124Z 19005KT 25/11 A3006 RMK A01 T02470111  RH  043%=      5-min Rain = 0
KHO1 141125Z 21004KT 25/11 A3006 RMK A01 T02470111  RH  042%=      5-min Rain = 0
KHO1 141126Z 22004KT 25/11 A3007 RMK A01 T02460111  RH  043%=      5-min Rain = 0
KHO1 141127Z 22004KT 25/11 A3007 RMK A01 T02460113  RH  043%=      5-min Rain = 0
KHO1 141128Z 21004KT 25/11 A3007 RMK A01 T02450112  RH  043%=      5-min Rain = 0
KHO1 141129Z 20005KT 25/11 A3007 RMK A01 T02450111  RH  043%=      5-min Rain = 0
KHO1 141130Z 20005KT 25/11 A3007 RMK A01 T02450110  RH  043%=      5-min Rain = 0
KHO1 141131Z 19004KT 25/11 A3006 RMK A01 T02460111  RH  043%=      5-min Rain = 0
KHO1 141132Z 19004KT 25/11 A3006 RMK A01 T02460112  RH  043%=      5-min Rain = 0
KHO1 141133Z 20005KT 25/11 A3007 RMK A01 T02450111  RH  043%=      5-min Rain = 0
KHO1 141134Z 21004KT 25/11 A3007 RMK A01 T02450111  RH  043%=      5-min Rain = 0
KHO1 141135Z 21004KT 25/11 A3007 RMK A01 T02450111  RH  043%=      5-min Rain = 0
KHO1 141136Z 21004KT 25/11 A3007 RMK A01 T02450111  RH  043%=      5-min Rain = 0
KHO1 141137Z 21004KT 25/11 A3007 RMK A01 T02460111  RH  043%=      5-min Rain = 0
KHO1 141138Z 20004KT 25/11 A3007 RMK A01 T02460111  RH  043%=      5-min Rain = 0
KHO1 141139Z 19004KT 25/11 A3007 RMK A01 T02460112  RH  043%=      5-min Rain = 0
KHO1 141140Z 18005KT 25/11 A3007 RMK A01 T02460110  RH  042%=      5-min Rain = 0
KHO1 141141Z 18005KT 25/11 A3007 RMK A01 T02460111  RH  042%=      5-min Rain = 0
KHO1 141142Z 17005KT 25/11 A3007 RMK A01 T02470111  RH  042%=      5-min Rain = 0
KHO1 141143Z 17006KT 25/11 A3007 RMK A01 T02460112  RH  043%=      5-min Rain = 0
KHO1 141144Z 17006KT 25/11 A3007 RMK A01 T02460111  RH  043%=      5-min Rain = 0
KHO1 141145Z 17006KT 25/11 A3007 RMK A01 T02460110  RH  042%=      5-min Rain = 0
KHO1 141146Z 17005KT 25/11 A3007 RMK A01 T02470109  RH  042%=      5-min Rain = 0
KHO1 141147Z 17004KT 25/11 A3007 RMK A01 T02470109  RH  042%=      5-min Rain = 0
KHO1 141148Z 18004KT 25/11 A3007 RMK A01 T02480108  RH  041%=      5-min Rain = 0
KHO1 141149Z 18003KT 25/11 A3007 RMK A01 T02490108  RH  041%=      5-min Rain = 0
KHO1 141150Z 18003KT 25/11 A3007 RMK A01 T02490109  RH  041%=      5-min Rain = 0
KHO1 141151Z 17003KT 25/11 A3007 RMK A01 T02490109  RH  041%=      5-min Rain = 0
KHO1 141152Z 17003KT 25/11 A3007 RMK A01 T02490109  RH  041%=      5-min Rain = 0
KHO1 141153Z 16004KT 25/11 A3007 RMK A01 T02490109  RH  042%=      5-min Rain = 0
KHO1 141154Z 16005KT 25/11 A3007 RMK A01 T02480110  RH  042%=      5-min Rain = 0
KHO1 141155Z 16005KT 25/11 A3007 RMK A01 T02470111  RH  042%=      5-min Rain = 0
KHO1 141156Z 16004KT 25/11 A3007 RMK A01 T02470110  RH  042%=      5-min Rain = 0
KHO1 141157Z 17003KT 25/11 A3007 RMK A01 T02470111  RH  042%=      5-min Rain = 0
KHO1 141158Z 17002KT 25/11 A3007 RMK A01 T02480111  RH  042%=      5-min Rain = 0
KHO1 141159Z 17002KT 25/11 A3008 RMK A01 T02480110  RH  042%=      5-min Rain = 0
KHO1 141200Z 18002KT 25/11 A3008 RMK A01 T02480111  RH  042%=      5-min Rain = 0
KHO1 141201Z 17003KT 25/11 A3008 RMK A01 T02480111  RH  042%=      5-min Rain = 0
KHO1 141202Z 17003KT 25/11 A3008 RMK A01 T02480111  RH  042%=      5-min Rain = 0
KHO1 141203Z 17004KT 25/11 A3008 RMK A01 T02480110  RH  042%=      5-min Rain = 0
KHO1 141204Z 17005KT 25/11 A3008 RMK A01 T02480110  RH  042%=      5-min Rain = 0
KHO1 141205Z 17005KT 25/11 A3007 RMK A01 T02490109  RH  042%=      5-min Rain = 0
KHO1 141206Z 16005KT 25/11 A3007 RMK A01 T02490111  RH  042%=      5-min Rain = 0
KHO1 141207Z 17005KT 25/11 A3007 RMK A01 T02490110  RH  042%=      5-min Rain = 0
KHO1 141208Z 17005KT 25/11 A3007 RMK A01 T02490110  RH  042%=      5-min Rain = 0
KHO1 141209Z 17004KT 25/11 A3007 RMK A01 T02500109  RH  041%=      5-min Rain = 0
KHO1 141210Z 18002KT 25/11 A3008 RMK A01 T02500111  RH  042%=      5-min Rain = 0
KHO1 141211Z 19001KT 25/11 A3008 RMK A01 T02500111  RH  042%=      5-min Rain = 0
KHO1 141212Z 20002KT 25/11 A3008 RMK A01 T02490110  RH  042%=      5-min Rain = 0
KHO1 141213Z 20002KT 25/11 A3008 RMK A01 T02490110  RH  042%=      5-min Rain = 0
KHO1 141214Z 19002KT 25/11 A3008 RMK A01 T02490110  RH  042%=      5-min Rain = 0
KHO1 141215Z 18003KT 25/11 A3008 RMK A01 T02490110  RH  042%=      5-min Rain = 0
KHO1 141216Z 18003KT 25/11 A3008 RMK A01 T02490109  RH  041%=      5-min Rain = 0
KHO1 141217Z 17003KT 25/11 A3008 RMK A01 T02490111  RH  042%=      5-min Rain = 0
KHO1 141218Z 18003KT 25/11 A3008 RMK A01 T02490111  RH  042%=      5-min Rain = 0
KHO1 141219Z 18002KT 25/11 A3008 RMK A01 T02490111  RH  042%=      5-min Rain = 0
KHO1 141220Z 18002KT 25/11 A3008 RMK A01 T02490112  RH  042%=      5-min Rain = 0
KHO1 141221Z 18002KT 25/11 A3008 RMK A01 T02490112  RH  042%=      5-min Rain = 0
KHO1 141222Z 17003KT 25/11 A3008 RMK A01 T02490111  RH  042%=      5-min Rain = 0
KHO1 141223Z 17003KT 25/11 A3008 RMK A01 T02480112  RH  042%=      5-min Rain = 0
KHO1 141224Z 17003KT 25/11 A3008 RMK A01 T02480112  RH  043%=      5-min Rain = 0
KHO1 141225Z 18003KT 25/11 A3008 RMK A01 T02480113  RH  043%=      5-min Rain = 0
KHO1 141226Z 19003KT 25/11 A3008 RMK A01 T02480114  RH  043%=      5-min Rain = 0
KHO1 141227Z 19003KT 25/11 A3008 RMK A01 T02480113  RH  043%=      5-min Rain = 0
KHO1 141228Z 18004KT 25/11 A3008 RMK A01 T02480113  RH  043%=      5-min Rain = 0
KHO1 141229Z 17005KT 25/11 A3008 RMK A01 T02480112  RH  042%=      5-min Rain = 0
KHO1 141230Z 17005KT 25/11 A3008 RMK A01 T02490112  RH  042%=      5-min Rain = 0
KHO1 141231Z 17005KT 25/11 A3008 RMK A01 T02490112  RH  042%=      5-min Rain = 0
KHO1 141232Z 17005KT 25/11 A3008 RMK A01 T02500112  RH  042%=      5-min Rain = 0
KHO1 141233Z 18005KT 25/11 A3008 RMK A01 T02500113  RH  042%=      5-min Rain = 0
KHO1 141234Z 18005KT 25/11 A3008 RMK A01 T02490113  RH  043%=      5-min Rain = 0
KHO1 141235Z 19005KT 25/11 A3008 RMK A01 T02490114  RH  043%=      5-min Rain = 0
KHO1 141236Z 19005KT 25/11 A3008 RMK A01 T02480114  RH  043%=      5-min Rain = 0
KHO1 141237Z 19005KT 25/12 A3008 RMK A01 T02480115  RH  043%=      5-min Rain = 0
KHO1 141238Z 18005KT 25/12 A3008 RMK A01 T02480115  RH  043%=      5-min Rain = 0
KHO1 141239Z 18005KT 25/12 A3008 RMK A01 T02470116  RH  044%=      5-min Rain = 0
KHO1 141240Z 18005KT 25/12 A3008 RMK A01 T02470115  RH  044%=      5-min Rain = 0
KHO1 141241Z 18005KT 25/12 A3008 RMK A01 T02470115  RH  043%=      5-min Rain = 0
KHO1 141242Z 18005KT 25/11 A3008 RMK A01 T02480113  RH  043%=      5-min Rain = 0
KHO1 141243Z 18005KT 25/11 A3008 RMK A01 T02480114  RH  043%=      5-min Rain = 0
KHO1 141244Z 18005KT 25/11 A3008 RMK A01 T02480114  RH  043%=      5-min Rain = 0
KHO1 141245Z 18005KT 25/11 A3008 RMK A01 T02480113  RH  043%=      5-min Rain = 0
KHO1 141246Z 18005KT 25/11 A3008 RMK A01 T02480114  RH  043%=      5-min Rain = 0
KHO1 141247Z 18006KT 25/11 A3008 RMK A01 T02480112  RH  043%=      5-min Rain = 0
KHO1 141248Z 18005KT 25/11 A3008 RMK A01 T02490113  RH  042%=      5-min Rain = 0
KHO1 141249Z 18005KT 25/11 A3008 RMK A01 T02490113  RH  042%=      5-min Rain = 0
KHO1 141250Z 17005KT 25/11 A3008 RMK A01 T02490113  RH  042%=      5-min Rain = 0
KHO1 141251Z 18005KT 25/11 A3009 RMK A01 T02490113  RH  043%=      5-min Rain = 0
KHO1 141252Z 18005KT 25/11 A3009 RMK A01 T02490113  RH  043%=      5-min Rain = 0
KHO1 141253Z 18004KT 25/11 A3009 RMK A01 T02490114  RH  043%=      5-min Rain = 0
KHO1 141254Z 18004KT 25/11 A3009 RMK A01 T02480114  RH  043%=      5-min Rain = 0
KHO1 141255Z 17004KT 25/11 A3009 RMK A01 T02480114  RH  043%=      5-min Rain = 0
KHO1 141256Z 17004KT 25/11 A3009 RMK A01 T02480114  RH  043%=      5-min Rain = 0
KHO1 141257Z 17005KT 25/11 A3009 RMK A01 T02480114  RH  043%=      5-min Rain = 0
KHO1 141258Z 17005KT 25/11 A3009 RMK A01 T02480113  RH  043%=      5-min Rain = 0
KHO1 141259Z 17005KT 25/11 A3009 RMK A01 T02480113  RH  043%=      5-min Rain = 0
KHO1 141300Z 17006KT 25/11 A3009 RMK A01 T02480113  RH  043%=      5-min Rain = 0
KHO1 141301Z 17006KT 25/11 A3009 RMK A01 T02480113  RH  043%=      5-min Rain = 0
KHO1 141302Z 17006KT 25/11 A3009 RMK A01 T02480113  RH  043%=      5-min Rain = 0
KHO1 141303Z 17005KT 25/11 A3009 RMK A01 T02480113  RH  043%=      5-min Rain = 0
KHO1 141304Z 17005KT 25/11 A3009 RMK A01 T02490113  RH  043%=      5-min Rain = 0
KHO1 141305Z 16005KT 25/11 A3009 RMK A01 T02490113  RH  042%=      5-min Rain = 0
KHO1 141306Z 16004KT 25/11 A3009 RMK A01 T02490113  RH  042%=      5-min Rain = 0
KHO1 141307Z 16004KT 25/11 A3009 RMK A01 T02490113  RH  042%=      5-min Rain = 0
KHO1 141308Z 17006KT 25/11 A3009 RMK A01 T02500112  RH  042%=      5-min Rain = 0
KHO1 141309Z 17005KT 25/11 A3009 RMK A01 T02500112  RH  042%=      5-min Rain = 0
KHO1 141310Z 18005KT 25/11 A3009 RMK A01 T02510112  RH  042%=      5-min Rain = 0
KHO1 141311Z 18005KT 25/11 A3009 RMK A01 T02510112  RH  042%=      5-min Rain = 0
KHO1 141312Z 18005KT 25/11 A3009 RMK A01 T02510112  RH  042%=      5-min Rain = 0
KHO1 141313Z 19005KT 25/11 A3009 RMK A01 T02510112  RH  042%=      5-min Rain = 0
KHO1 141314Z 19005KT 25/11 A301 RMK A01 T02510112  RH  042%=      5-min Rain = 0
KHO1 141315Z 20004KT 25/11 A301 RMK A01 T02510113  RH  042%=      5-min Rain = 0
KHO1 141316Z 21004KT 25/11 A301 RMK A01 T02510113  RH  042%=      5-min Rain = 0
KHO1 141317Z 20004KT 25/11 A301 RMK A01 T02510112  RH  042%=      5-min Rain = 0
KHO1 141318Z 21004KT 25/11 A301 RMK A01 T02510113  RH  042%=      5-min Rain = 0
KHO1 141319Z 20004KT 25/11 A301 RMK A01 T02510113  RH  042%=      5-min Rain = 0
KHO1 141320Z 19004KT 25/11 A301 RMK A01 T02520113  RH  042%=      5-min Rain = 0
KHO1 141321Z 19004KT 25/11 A301 RMK A01 T02520113  RH  042%=      5-min Rain = 0
KHO1 141322Z 19004KT 25/11 A301 RMK A01 T02520113  RH  042%=      5-min Rain = 0
KHO1 141323Z 20003KT 25/11 A301 RMK A01 T02520113  RH  042%=      5-min Rain = 0
KHO1 141324Z 23003KT 25/11 A301 RMK A01 T02520113  RH  042%=      5-min Rain = 0
KHO1 141325Z 22004KT 25/11 A301 RMK A01 T02520114  RH  042%=      5-min Rain = 0
KHO1 141326Z 19004KT 25/11 A301 RMK A01 T02520113  RH  042%=      5-min Rain = 0
KHO1 141327Z 17005KT 25/11 A301 RMK A01 T02530113  RH  042%=      5-min Rain = 0
KHO1 141328Z 17006KT 25/11 A301 RMK A01 T02530112  RH  041%=      5-min Rain = 0
KHO1 141329Z 17006KT 25/11 A301 RMK A01 T02530113  RH  041%=      5-min Rain = 0
KHO1 141330Z 17006KT 25/11 A301 RMK A01 T02530113  RH  041%=      5-min Rain = 0
KHO1 141331Z 17005KT 25/11 A301 RMK A01 T02530113  RH  041%=      5-min Rain = 0
KHO1 141332Z 18006KT 25/11 A301 RMK A01 T02530114  RH  042%=      5-min Rain = 0
KHO1 141333Z 18006KT 25/11 A301 RMK A01 T02540113  RH  041%=      5-min Rain = 0
KHO1 141334Z 18006KT 25/11 A301 RMK A01 T02540114  RH  042%=      5-min Rain = 0
KHO1 141335Z 18007KT 25/11 A301 RMK A01 T02540113  RH  041%=      5-min Rain = 0
KHO1 141336Z 18006KT 25/11 A301 RMK A01 T02540114  RH  041%=      5-min Rain = 0
KHO1 141337Z 17007KT 26/11 A301 RMK A01 T02550114  RH  041%=      5-min Rain = 0
KHO1 141338Z 17009KT 26/11 A301 RMK A01 T02550112  RH  041%=      5-min Rain = 0
KHO1 141339Z 16009KT 26/11 A301 RMK A01 T02550113  RH  041%=      5-min Rain = 0
KHO1 141340Z 13012KT 26/11 A3009 RMK A01 T02560112  RH  041%=      5-min Rain = 0
KHO1 141341Z 16007KT 26/11 A301 RMK A01 T02560107  RH  039%=      5-min Rain = 0
KHO1 141342Z 22009KT 26/11 A301 RMK A01 T02610105  RH  037%=      5-min Rain = 0
KHO1 141343Z 21008KT 26/11 A301 RMK A01 T02620108  RH  038%=      5-min Rain = 0
KHO1 141344Z 21012KT 26/11 A301 RMK A01 T02610108  RH  038%=      5-min Rain = 0
KHO1 141345Z 20012KT 26/11 A301 RMK A01 T02610108  RH  038%=      5-min Rain = 0
KHO1 141346Z 20009KT 26/11 A301 RMK A01 T02620110  RH  039%=      5-min Rain = 0
KHO1 141347Z 20009KT 26/11 A301 RMK A01 T02630109  RH  038%=      5-min Rain = 0
KHO1 141348Z 22009KT 26/11 A3011 RMK A01 T02620110  RH  038%=      5-min Rain = 0
KHO1 141349Z 23008KT 26/11 A3011 RMK A01 T02620111  RH  039%=      5-min Rain = 0
KHO1 141350Z 21009KT 26/11 A3011 RMK A01 T02620110  RH  039%=      5-min Rain = 0
KHO1 141351Z 19010KT 26/11 A3011 RMK A01 T02610110  RH  039%=      5-min Rain = 0
KHO1 141352Z 19009KT 26/11 A3011 RMK A01 T02610111  RH  039%=      5-min Rain = 0
KHO1 141353Z 19009KT 26/11 A3011 RMK A01 T02610111  RH  039%=      5-min Rain = 0
KHO1 141354Z 19008KT 26/11 A3011 RMK A01 T02610111  RH  039%=      5-min Rain = 0
KHO1 141355Z 19009KT 26/11 A3011 RMK A01 T02610112  RH  039%=      5-min Rain = 0
KHO1 141356Z 19009KT 26/11 A3011 RMK A01 T02610112  RH  039%=      5-min Rain = 0
KHO1 141357Z 19009KT 26/11 A3011 RMK A01 T02610112  RH  039%=      5-min Rain = 0
KHO1 141358Z 20009KT 26/11 A3011 RMK A01 T02610113  RH  039%=      5-min Rain = 0
KHO1 141359Z 19010KT 26/12 A3011 RMK A01 T02620115  RH  040%=      5-min Rain = 0
KHO1 141400Z 19011KT 26/12 A3011 RMK A01 T02610116  RH  040%=      5-min Rain = 0
KHO1 141401Z 20011KT 26/12 A3011 RMK A01 T02600118  RH  041%=      5-min Rain = 0
KHO1 141402Z 19012KT 26/12 A3011 RMK A01 T02600117  RH  041%=      5-min Rain = 0
KHO1 141403Z 19012KT 26/12 A3011 RMK A01 T02600116  RH  041%=      5-min Rain = 0
KHO1 141404Z 18011KT 26/12 A3011 RMK A01 T02600117  RH  041%=      5-min Rain = 0
KHO1 141405Z 17011KT 26/12 A3011 RMK A01 T02600117  RH  041%=      5-min Rain = 0
KHO1 141406Z 17010KT 26/12 A3011 RMK A01 T02610117  RH  041%=      5-min Rain = 0
KHO1 141407Z 17010KT 26/12 A301 RMK A01 T02610116  RH  040%=      5-min Rain = 0
KHO1 141408Z 16009KT 26/12 A301 RMK A01 T02620115  RH  040%=      5-min Rain = 0
KHO1 141409Z 17009KT 26/11 A301 RMK A01 T02620114  RH  039%=      5-min Rain = 0
KHO1 141410Z 19007KT 26/12 A301 RMK A01 T02630115  RH  040%=      5-min Rain = 0
KHO1 141411Z 18008KT 27/12 A301 RMK A01 T02650115  RH  039%=      5-min Rain = 0
KHO1 141412Z 18008KT 27/11 A301 RMK A01 T02660114  RH  039%=      5-min Rain = 0
KHO1 141413Z 16008KT 27/11 A301 RMK A01 T02670111  RH  038%=      5-min Rain = 0
KHO1 141414Z 14007KT 27/11 A301 RMK A01 T02660111  RH  038%=      5-min Rain = 0
KHO1 141415Z 17005KT 27/11 A301 RMK A01 T02660112  RH  038%=      5-min Rain = 0
KHO1 141416Z 15007KT 27/11 A301 RMK A01 T02670112  RH  038%=      5-min Rain = 0
KHO1 141417Z 17007KT 27/11 A3011 RMK A01 T02670112  RH  038%=      5-min Rain = 0
KHO1 141418Z 16007KT 27/11 A301 RMK A01 T02680111  RH  038%=      5-min Rain = 0
KHO1 141419Z 15007KT 27/11 A301 RMK A01 T02680111  RH  038%=      5-min Rain = 0
KHO1 141420Z 15006KT 27/11 A301 RMK A01 T02700112  RH  037%=      5-min Rain = 0
KHO1 141421Z 14007KT 27/11 A301 RMK A01 T02720112  RH  037%=      5-min Rain = 0
KHO1 141422Z 13008KT 27/11 A301 RMK A01 T02740110  RH  036%=      5-min Rain = 0
KHO1 141423Z 13007KT 28/11 A301 RMK A01 T02750110  RH  036%=      5-min Rain = 0
KHO1 141424Z 12006KT 28/11 A301 RMK A01 T02760110  RH  036%=      5-min Rain = 0
KHO1 141425Z 12008KT 28/11 A301 RMK A01 T02770110  RH  035%=      5-min Rain = 0
KHO1 141426Z 11008KT 28/11 A301 RMK A01 T02780110  RH  035%=      5-min Rain = 0
KHO1 141427Z 12008KT 28/11 A301 RMK A01 T02790109  RH  035%=      5-min Rain = 0
KHO1 141428Z 13010KT 28/11 A301 RMK A01 T02800108  RH  034%=      5-min Rain = 0
KHO1 141429Z 15008KT 28/11 A301 RMK A01 T02800108  RH  034%=      5-min Rain = 0
KHO1 141430Z 14007KT 28/11 A301 RMK A01 T02820109  RH  034%=      5-min Rain = 0
KHO1 141431Z 13006KT 28/11 A301 RMK A01 T02840109  RH  034%=      5-min Rain = 0
KHO1 141432Z 14008KT 29/11 A301 RMK A01 T02860108  RH  033%=      5-min Rain = 0
KHO1 141433Z 14008KT 28/11 A3011 RMK A01 T02840105  RH  033%=      5-min Rain = 0
KHO1 141434Z 14007KT 29/11 A3011 RMK A01 T02860108  RH  033%=      5-min Rain = 0
KHO1 141435Z 13008KT 29/11 A3011 RMK A01 T02860105  RH  032%=      5-min Rain = 0
KHO1 141436Z 14007KT 29/10 A3011 RMK A01 T02850104  RH  032%=      5-min Rain = 0
KHO1 141437Z 14004KT 28/10 A3011 RMK A01 T02830103  RH  032%=      5-min Rain = 0
KHO1 141438Z 14005KT 28/10 A3012 RMK A01 T02810103  RH  033%=      5-min Rain = 0
KHO1 141439Z 13004KT 28/10 A3012 RMK A01 T02800103  RH  033%=      5-min Rain = 0
KHO1 141440Z 11005KT 28/11 A3012 RMK A01 T02800105  RH  033%=      5-min Rain = 0
KHO1 141441Z 11003KT 28/11 A3011 RMK A01 T02820105  RH  033%=      5-min Rain = 0
KHO1 141442Z 12004KT 28/11 A3011 RMK A01 T02820105  RH  033%=      5-min Rain = 0
KHO1 141443Z 12003KT 28/10 A3011 RMK A01 T02820104  RH  033%=      5-min Rain = 0
KHO1 141444Z 14002KT 28/10 A3011 RMK A01 T02810104  RH  033%=      5-min Rain = 0
KHO1 141445Z 14003KT 28/10 A3011 RMK A01 T02810104  RH  033%=      5-min Rain = 0
KHO1 141446Z 12003KT 28/11 A3011 RMK A01 T02800105  RH  033%=      5-min Rain = 0
KHO1 141447Z 11004KT 28/11 A3011 RMK A01 T02820106  RH  033%=      5-min Rain = 0
KHO1 141448Z 10003KT 28/11 A3011 RMK A01 T02830106  RH  033%=      5-min Rain = 0
KHO1 141449Z 08002KT 29/11 A3011 RMK A01 T02850106  RH  033%=      5-min Rain = 0
KHO1 141450Z 08001KT 29/11 A3011 RMK A01 T02860105  RH  032%=      5-min Rain = 0
KHO1 141451Z 07002KT 29/11 A3011 RMK A01 T02870106  RH  032%=      5-min Rain = 0
KHO1 141452Z 09002KT 29/11 A3011 RMK A01 T02880106  RH  032%=      5-min Rain = 0
KHO1 141453Z 11003KT 29/11 A3011 RMK A01 T02890106  RH  032%=      5-min Rain = 0
KHO1 141454Z 15003KT 29/10 A3011 RMK A01 T02890104  RH  032%=      5-min Rain = 0
KHO1 141455Z 14003KT 29/10 A3012 RMK A01 T02880104  RH  032%=      5-min Rain = 0
KHO1 141456Z 20003KT 29/10 A3012 RMK A01 T02870103  RH  032%=      5-min Rain = 0
KHO1 141457Z 23005KT 29/10 A3012 RMK A01 T02870103  RH  032%=      5-min Rain = 0
KHO1 141458Z 25007KT 29/10 A3013 RMK A01 T02870103  RH  032%=      5-min Rain = 0
KHO1 141459Z 26007KT 29/10 A3013 RMK A01 T02880104  RH  032%=      5-min Rain = 0
KHO1 141500Z 24005KT 29/10 A3012 RMK A01 T02880104  RH  032%=      5-min Rain = 0
KHO1 141501Z 24002KT 29/10 A3012 RMK A01 T02890104  RH  032%=      5-min Rain = 0
KHO1 141502Z 17001KT 29/11 A3012 RMK A01 T02910105  RH  032%=      5-min Rain = 0
KHO1 141503Z 15003KT 29/10 A3011 RMK A01 T02910102  RH  031%=      5-min Rain = 0
KHO1 141504Z 14001KT 29/10 A3012 RMK A01 T02900102  RH  031%=      5-min Rain = 0
KHO1 141505Z 26001KT 29/10 A3012 RMK A01 T02910103  RH  031%=      5-min Rain = 0
KHO1 141506Z 28004KT 29/10 A3012 RMK A01 T02920103  RH  031%=      5-min Rain = 0
KHO1 141507Z 28004KT 29/10 A3012 RMK A01 T02920103  RH  031%=      5-min Rain = 0
KHO1 141508Z 28004KT 29/10 A3012 RMK A01 T02920103  RH  031%=      5-min Rain = 0
KHO1 141509Z 29004KT 29/10 A3012 RMK A01 T02930104  RH  031%=      5-min Rain = 0
KHO1 141510Z 31003KT 30/10 A3012 RMK A01 T02950103  RH  030%=      5-min Rain = 0
KHO1 141511Z 33003KT 30/10 A3012 RMK A01 T02970104  RH  030%=      5-min Rain = 0
KHO1 141512Z 31004KT 30/11 A3012 RMK A01 T02990107  RH  031%=      5-min Rain = 0
KHO1 141513Z 30004KT 30/11 A3012 RMK A01 T03010107  RH  030%=      5-min Rain = 0
KHO1 141514Z 29006KT 30/11 A3012 RMK A01 T03010106  RH  030%=      5-min Rain = 0
KHO1 141515Z 27003KT 30/11 A3012 RMK A01 T03000107  RH  030%=      5-min Rain = 0
KHO1 141516Z 22003KT 30/10 A3011 RMK A01 T03000104  RH  030%=      5-min Rain = 0
KHO1 141517Z 17002KT 30/10 A3011 RMK A01 T03000104  RH  030%=      5-min Rain = 0
KHO1 141518Z 19001KT 30/10 A3011 RMK A01 T03010104  RH  029%=      5-min Rain = 0
KHO1 141519Z 26001KT 30/10 A3011 RMK A01 T03030104  RH  029%=      5-min Rain = 0
KHO1 141520Z 32004KT 31/10 A3011 RMK A01 T03050104  RH  029%=      5-min Rain = 0
KHO1 141521Z 33005KT 31/11 A3012 RMK A01 T03050106  RH  029%=      5-min Rain = 0
KHO1 141522Z 33004KT 30/11 A3012 RMK A01 T03040107  RH  030%=      5-min Rain = 0
KHO1 141523Z 32003KT 30/11 A3012 RMK A01 T03030109  RH  030%=      5-min Rain = 0
KHO1 141524Z 31002KT 30/11 A3012 RMK A01 T03040107  RH  030%=      5-min Rain = 0
KHO1 141525Z 03002KT 31/11 A3011 RMK A01 T03050108  RH  030%=      5-min Rain = 0
KHO1 141526Z 03002KT 31/11 A3011 RMK A01 T03060109  RH  030%=      5-min Rain = 0
KHO1 141527Z 03002KT 31/11 A3011 RMK A01 T03080109  RH  029%=      5-min Rain = 0
KHO1 141528Z 03001KT 31/11 A3011 RMK A01 T03090106  RH  029%=      5-min Rain = 0
KHO1 141529Z 03002KT 31/11 A3011 RMK A01 T03100106  RH  028%=      5-min Rain = 0
KHO1 141530Z 03002KT 31/10 A3011 RMK A01 T03080104  RH  028%=      5-min Rain = 0
KHO1 141531Z 01002KT 31/10 A3011 RMK A01 T03070104  RH  029%=      5-min Rain = 0
KHO1 141532Z 06002KT 31/11 A3011 RMK A01 T03060107  RH  029%=      5-min Rain = 0
KHO1 141533Z 04002KT 31/11 A3011 RMK A01 T03080106  RH  029%=      5-min Rain = 0
KHO1 141534Z 02003KT 31/11 A3011 RMK A01 T03090105  RH  028%=      5-min Rain = 0
KHO1 141535Z 02002KT 31/10 A3011 RMK A01 T03080104  RH  028%=      5-min Rain = 0
KHO1 141536Z 02001KT 31/10 A3011 RMK A01 T03080104  RH  028%=      5-min Rain = 0
KHO1 141537Z 03000KT 31/11 A3011 RMK A01 T03080106  RH  029%=      5-min Rain = 0
KHO1 141538Z 12003KT 31/11 A3011 RMK A01 T03090106  RH  029%=      5-min Rain = 0
KHO1 141539Z 12004KT 31/10 A3011 RMK A01 T03070102  RH  028%=      5-min Rain = 0
KHO1 141540Z 12003KT 31/10 A3011 RMK A01 T03050102  RH  028%=      5-min Rain = 0
KHO1 141541Z 11002KT 31/10 A3011 RMK A01 T03050104  RH  029%=      5-min Rain = 0
KHO1 141542Z 10003KT 31/10 A3011 RMK A01 T03060104  RH  029%=      5-min Rain = 0
KHO1 141543Z 10002KT 31/10 A3011 RMK A01 T03070103  RH  028%=      5-min Rain = 0
KHO1 141544Z 10002KT 31/11 A3011 RMK A01 T03080105  RH  029%=      5-min Rain = 0
KHO1 141545Z 10002KT 31/11 A3011 RMK A01 T03100105  RH  028%=      5-min Rain = 0
KHO1 141546Z 12003KT 31/10 A3011 RMK A01 T03100102  RH  028%=      5-min Rain = 0
KHO1 141547Z 15002KT 31/10 A3011 RMK A01 T03080099  RH  027%=      5-min Rain = 0
KHO1 141548Z 14002KT 31/10 A3011 RMK A01 T03070099  RH  028%=      5-min Rain = 0
KHO1 141549Z 12003KT 31/10 A3011 RMK A01 T03080101  RH  028%=      5-min Rain = 0
KHO1 141550Z 11002KT 31/10 A3011 RMK A01 T03090102  RH  028%=      5-min Rain = 0
KHO1 141551Z 08002KT 31/10 A3011 RMK A01 T03100102  RH  028%=      5-min Rain = 0
KHO1 141552Z 04003KT 31/10 A3011 RMK A01 T03110101  RH  027%=      5-min Rain = 0
KHO1 141553Z 04003KT 31/10 A3011 RMK A01 T03100101  RH  027%=      5-min Rain = 0
KHO1 141554Z 03004KT 31/10 A3011 RMK A01 T03100099  RH  027%=      5-min Rain = 0
KHO1 141555Z 04003KT 31/10 A3011 RMK A01 T03100099  RH  027%=      5-min Rain = 0
KHO1 141556Z 02003KT 31/10 A3011 RMK A01 T03100101  RH  028%=      5-min Rain = 0
KHO1 141557Z 00005KT 31/10 A3011 RMK A01 T03100104  RH  028%=      5-min Rain = 0
KHO1 141558Z 35006KT 31/11 A3011 RMK A01 T03090106  RH  029%=      5-min Rain = 0
KHO1 141559Z 35006KT 31/11 A3011 RMK A01 T03070107  RH  029%=      5-min Rain = 0
KHO1 141600Z 34006KT 31/11 A3011 RMK A01 T03060107  RH  029%=      5-min Rain = 0
KHO1 141601Z 33006KT 31/11 A3011 RMK A01 T03060107  RH  029%=      5-min Rain = 0
KHO1 141602Z 33007KT 31/10 A3011 RMK A01 T03060103  RH  029%=      5-min Rain = 0
KHO1 141603Z 33005KT 31/10 A3011 RMK A01 T03050103  RH  029%=      5-min Rain = 0
KHO1 141604Z 34002KT 31/10 A3011 RMK A01 T03050102  RH  029%=      5-min Rain = 0
KHO1 141605Z 35000KT 31/10 A3011 RMK A01 T03050099  RH  028%=      5-min Rain = 0
KHO1 141606Z 06001KT 31/10 A3011 RMK A01 T03050101  RH  028%=      5-min Rain = 0
KHO1 141607Z 02001KT 31/10 A3011 RMK A01 T03060098  RH  028%=      5-min Rain = 0
KHO1 141608Z 32004KT 31/10 A3011 RMK A01 T03070101  RH  028%=      5-min Rain = 0
KHO1 141609Z 32005KT 31/11 A3011 RMK A01 T03070109  RH  029%=      5-min Rain = 0
KHO1 141610Z 31004KT 31/11 A3011 RMK A01 T03060111  RH  030%=      5-min Rain = 0
KHO1 141611Z 32004KT 31/11 A3012 RMK A01 T03050110  RH  030%=      5-min Rain = 0
KHO1 141612Z 32006KT 30/11 A3012 RMK A01 T03040112  RH  031%=      5-min Rain = 0
KHO1 141613Z 31007KT 30/11 A3012 RMK A01 T03030114  RH  031%=      5-min Rain = 0
KHO1 141614Z 32005KT 30/11 A3012 RMK A01 T03010111  RH  031%=      5-min Rain = 0
KHO1 141615Z 33005KT 30/11 A3012 RMK A01 T03010109  RH  031%=      5-min Rain = 0
KHO1 141616Z 34006KT 30/11 A3012 RMK A01 T03010113  RH  031%=      5-min Rain = 0
KHO1 141617Z 34005KT 30/12 A3012 RMK A01 T03010115  RH  032%=      5-min Rain = 0
KHO1 141618Z 34006KT 30/11 A3011 RMK A01 T03000112  RH  031%=      5-min Rain = 0
KHO1 141619Z 34004KT 30/11 A3011 RMK A01 T03000112  RH  031%=      5-min Rain = 0
KHO1 141620Z 34004KT 30/11 A3011 RMK A01 T02990112  RH  032%=      5-min Rain = 0
KHO1 141621Z 34005KT 30/11 A3011 RMK A01 T02990114  RH  032%=      5-min Rain = 0
KHO1 141622Z 36005KT 30/11 A3011 RMK A01 T02990113  RH  032%=      5-min Rain = 0
KHO1 141623Z 35004KT 30/11 A3011 RMK A01 T02990111  RH  031%=      5-min Rain = 0
KHO1 141624Z 36003KT 30/11 A3011 RMK A01 T02990111  RH  031%=      5-min Rain = 0
KHO1 141625Z 34004KT 30/11 A3012 RMK A01 T02990112  RH  031%=      5-min Rain = 0
KHO1 141626Z 34004KT 30/11 A3012 RMK A01 T03010114  RH  032%=      5-min Rain = 0
KHO1 141627Z 34006KT 30/11 A3012 RMK A01 T03030113  RH  031%=      5-min Rain = 0
KHO1 141628Z 35006KT 30/11 A3012 RMK A01 T03030112  RH  031%=      5-min Rain = 0
KHO1 141629Z 34005KT 30/11 A3012 RMK A01 T03020112  RH  031%=      5-min Rain = 0
KHO1 141630Z 35004KT 30/11 A3012 RMK A01 T03010110  RH  031%=      5-min Rain = 0
KHO1 141631Z 34004KT 30/11 A3012 RMK A01 T03010110  RH  031%=      5-min Rain = 0
KHO1 141632Z 33004KT 30/11 A3012 RMK A01 T03020111  RH  031%=      5-min Rain = 0
KHO1 141633Z 33005KT 30/11 A3012 RMK A01 T03030111  RH  031%=      5-min Rain = 0
KHO1 141634Z 34005KT 30/11 A3012 RMK A01 T03040109  RH  030%=      5-min Rain = 0
KHO1 141635Z 36004KT 30/11 A3012 RMK A01 T03030109  RH  030%=      5-min Rain = 0
KHO1 141636Z 34005KT 30/11 A3012 RMK A01 T03030111  RH  030%=      5-min Rain = 0
KHO1 141637Z 33005KT 31/11 A3012 RMK A01 T03050110  RH  030%=      5-min Rain = 0
KHO1 141638Z 33004KT 31/11 A3012 RMK A01 T03050108  RH  030%=      5-min Rain = 0
KHO1 141639Z 34005KT 31/11 A3012 RMK A01 T03060107  RH  029%=      5-min Rain = 0
KHO1 141640Z 34005KT 31/11 A3012 RMK A01 T03070106  RH  029%=      5-min Rain = 0
KHO1 141641Z 34006KT 31/11 A3012 RMK A01 T03070105  RH  029%=      5-min Rain = 0
KHO1 141642Z 34006KT 31/11 A3012 RMK A01 T03070105  RH  029%=      5-min Rain = 0
KHO1 141643Z 34007KT 31/11 A3012 RMK A01 T03070105  RH  029%=      5-min Rain = 0
KHO1 141644Z 34006KT 31/10 A3012 RMK A01 T03070104  RH  028%=      5-min Rain = 0
KHO1 141645Z 35005KT 31/10 A3012 RMK A01 T03070103  RH  028%=      5-min Rain = 0
KHO1 141646Z 35004KT 31/10 A3012 RMK A01 T03090102  RH  028%=      5-min Rain = 0
KHO1 141647Z 33004KT 31/11 A3012 RMK A01 T03100105  RH  028%=      5-min Rain = 0
KHO1 141648Z 34003KT 31/11 A3012 RMK A01 T03120106  RH  028%=      5-min Rain = 0
KHO1 141649Z 33003KT 31/11 A3012 RMK A01 T03130106  RH  028%=      5-min Rain = 0
KHO1 141650Z 30002KT 31/11 A3012 RMK A01 T03140105  RH  027%=      5-min Rain = 0
KHO1 141651Z 27003KT 32/10 A3012 RMK A01 T03150104  RH  027%=      5-min Rain = 0
KHO1 141652Z 28002KT 32/11 A3012 RMK A01 T03150105  RH  027%=      5-min Rain = 0
KHO1 141653Z 28002KT 32/11 A3012 RMK A01 T03150106  RH  028%=      5-min Rain = 0
KHO1 141654Z 29003KT 32/11 A3012 RMK A01 T03170106  RH  027%=      5-min Rain = 0
KHO1 141655Z 29002KT 32/11 A3012 RMK A01 T03190105  RH  027%=      5-min Rain = 0
KHO1 141656Z 33003KT 32/11 A3012 RMK A01 T03220105  RH  026%=      5-min Rain = 0
KHO1 141657Z 35004KT 32/10 A3012 RMK A01 T03210104  RH  026%=      5-min Rain = 0
KHO1 141658Z 00003KT 32/10 A3012 RMK A01 T03190104  RH  027%=      5-min Rain = 0
KHO1 141659Z 33004KT 32/10 A3012 RMK A01 T03190104  RH  027%=      5-min Rain = 0
KHO1 141700Z 32004KT 32/10 A3012 RMK A01 T03210101  RH  026%=      5-min Rain = 0
KHO1 141701Z 32004KT 32/10 A3012 RMK A01 T03220101  RH  026%=      5-min Rain = 0
KHO1 141702Z 29004KT 32/10 A3012 RMK A01 T03230102  RH  026%=      5-min Rain = 0
KHO1 141703Z 27003KT 32/10 A3012 RMK A01 T03230102  RH  026%=      5-min Rain = 0
KHO1 141704Z 26004KT 32/10 A3012 RMK A01 T03230100  RH  025%=      5-min Rain = 0
KHO1 141705Z 25002KT 32/10 A3012 RMK A01 T03220101  RH  026%=      5-min Rain = 0
KHO1 141706Z 22003KT 32/10 A3012 RMK A01 T03230101  RH  026%=      5-min Rain = 0
KHO1 141707Z 22002KT 32/10 A3012 RMK A01 T03230099  RH  025%=      5-min Rain = 0
KHO1 141708Z 24001KT 32/10 A3012 RMK A01 T03230099  RH  025%=      5-min Rain = 0
KHO1 141709Z 25002KT 33/10 A3012 RMK A01 T03250099  RH  025%=      5-min Rain = 0
KHO1 141710Z 26002KT 33/10 A3012 RMK A01 T03260095  RH  024%=      5-min Rain = 0
KHO1 141711Z 27003KT 33/10 A3012 RMK A01 T03270096  RH  024%=      5-min Rain = 0
KHO1 141712Z 28003KT 33/10 A3012 RMK A01 T03280099  RH  024%=      5-min Rain = 0
KHO1 141713Z 31003KT 33/10 A3012 RMK A01 T03290100  RH  024%=      5-min Rain = 0
KHO1 141714Z 30002KT 33/10 A3012 RMK A01 T03300101  RH  025%=      5-min Rain = 0
KHO1 141715Z 28002KT 33/10 A3012 RMK A01 T03300099  RH  024%=      5-min Rain = 0
KHO1 141716Z 32002KT 33/10 A3012 RMK A01 T03300100  RH  024%=      5-min Rain = 0
KHO1 141717Z 34001KT 33/10 A3012 RMK A01 T03310100  RH  024%=      5-min Rain = 0
KHO1 141718Z 34001KT 33/10 A3012 RMK A01 T03310101  RH  024%=      5-min Rain = 0
KHO1 141719Z 27001KT 33/10 A3012 RMK A01 T03330100  RH  024%=      5-min Rain = 0
KHO1 141720Z 27003KT 33/10 A3012 RMK A01 T03330099  RH  024%=      5-min Rain = 0
KHO1 141721Z 24002KT 33/10 A3012 RMK A01 T03340098  RH  024%=      5-min Rain = 0
KHO1 141722Z 22002KT 33/10 A3012 RMK A01 T03340096  RH  023%=      5-min Rain = 0
KHO1 141723Z 20001KT 33/09 A3012 RMK A01 T03330093  RH  023%=      5-min Rain = 0
KHO1 141724Z 24001KT 33/09 A3012 RMK A01 T03320093  RH  023%=      5-min Rain = 0
KHO1 141725Z 22001KT 33/10 A3012 RMK A01 T03330095  RH  023%=      5-min Rain = 0
KHO1 141726Z 23002KT 33/09 A3012 RMK A01 T03340094  RH  023%=      5-min Rain = 0
KHO1 141727Z 25001KT 34/09 A3012 RMK A01 T03350093  RH  023%=      5-min Rain = 0
KHO1 141728Z 24001KT 34/09 A3012 RMK A01 T03370091  RH  022%=      5-min Rain = 0
KHO1 141729Z 20002KT 34/09 A3012 RMK A01 T03390091  RH  022%=      5-min Rain = 0
KHO1 141730Z 18002KT 34/09 A3012 RMK A01 T03390091  RH  022%=      5-min Rain = 0
KHO1 141731Z 17002KT 34/09 A3012 RMK A01 T03400091  RH  022%=      5-min Rain = 0
KHO1 141732Z 14002KT 34/09 A3012 RMK A01 T03400091  RH  022%=      5-min Rain = 0
KHO1 141733Z 13001KT 34/09 A3012 RMK A01 T03420091  RH  021%=      5-min Rain = 0
KHO1 141734Z 12001KT 34/09 A3012 RMK A01 T03430086  RH  021%=      5-min Rain = 0
KHO1 141735Z 12001KT 34/09 A3012 RMK A01 T03440088  RH  021%=      5-min Rain = 0
KHO1 141736Z 25001KT 35/09 A3011 RMK A01 T03470088  RH  020%=      5-min Rain = 0
KHO1 141737Z 24001KT 35/09 A3011 RMK A01 T03480086  RH  020%=      5-min Rain = 0
KHO1 141738Z 27001KT 35/09 A3011 RMK A01 T03500088  RH  020%=      5-min Rain = 0
KHO1 141739Z 31001KT 35/09 A3011 RMK A01 T03540091  RH  020%=      5-min Rain = 0
KHO1 141740Z 23001KT 36/08 A3011 RMK A01 T03580080  RH  018%=      5-min Rain = 0
KHO1 141741Z 31001KT 36/08 A3011 RMK A01 T03600083  RH  018%=      5-min Rain = 0
KHO1 141742Z 34002KT 36/08 A3011 RMK A01 T03610084  RH  018%=      5-min Rain = 0
KHO1 141743Z 36003KT 36/08 A3011 RMK A01 T03580083  RH  019%=      5-min Rain = 0
KHO1 141744Z 02003KT 36/08 A3011 RMK A01 T03550078  RH  018%=      5-min Rain = 0
KHO1 141745Z 04004KT 35/08 A3011 RMK A01 T03530075  RH  018%=      5-min Rain = 0
KHO1 141746Z 01003KT 35/08 A3011 RMK A01 T03540077  RH  018%=      5-min Rain = 0
KHO1 141747Z 01003KT 36/08 A3011 RMK A01 T03550077  RH  018%=      5-min Rain = 0
KHO1 141748Z 32003KT 36/08 A3011 RMK A01 T03560075  RH  018%=      5-min Rain = 0
KHO1 141749Z 34003KT 36/07 A3011 RMK A01 T03560072  RH  017%=      5-min Rain = 0
KHO1 141750Z 34002KT 36/07 A3011 RMK A01 T03550072  RH  018%=      5-min Rain = 0
KHO1 141751Z 01002KT 35/08 A3011 RMK A01 T03540076  RH  018%=      5-min Rain = 0
KHO1 141752Z 02001KT 36/08 A3011 RMK A01 T03550075  RH  018%=      5-min Rain = 0
KHO1 141753Z 04002KT 36/07 A3011 RMK A01 T03570072  RH  017%=      5-min Rain = 0
KHO1 141754Z 02001KT 36/07 A3011 RMK A01 T03580073  RH  017%=      5-min Rain = 0
KHO1 141755Z 32002KT 36/07 A3011 RMK A01 T03600070  RH  017%=      5-min Rain = 0
KHO1 141756Z 33000KT 36/07 A3011 RMK A01 T03630071  RH  017%=      5-min Rain = 0
KHO1 141757Z 31002KT 37/07 A3011 RMK A01 T03650071  RH  017%=      5-min Rain = 0
KHO1 141758Z 29003KT 37/06 A3011 RMK A01 T03670062  RH  015%=      5-min Rain = 0
KHO1 141759Z 24002KT 37/06 A3011 RMK A01 T03650062  RH  016%=      5-min Rain = 0
KHO1 141800Z 29003KT 37/06 A3011 RMK A01 T03650059  RH  015%=      5-min Rain = 0
KHO1 141801Z 26003KT 37/06 A3011 RMK A01 T03650059  RH  015%=      5-min Rain = 0
KHO1 141802Z 26003KT 36/06 A3011 RMK A01 T03630062  RH  016%=      5-min Rain = 0
KHO1 141803Z 24002KT 36/06 A3011 RMK A01 T03620062  RH  016%=      5-min Rain = 0
KHO1 141804Z 30002KT 36/06 A3011 RMK A01 T03630056  RH  015%=      5-min Rain = 0
KHO1 141805Z 32002KT 37/05 A3011 RMK A01 T03650049  RH  014%=      5-min Rain = 0
KHO1 141806Z 32002KT 37/05 A3011 RMK A01 T03660053  RH  014%=      5-min Rain = 0
KHO1 141807Z 34003KT 37/06 A301 RMK A01 T03680055  RH  015%=      5-min Rain = 0
KHO1 141808Z 31003KT 37/05 A301 RMK A01 T03680054  RH  014%=      5-min Rain = 0
KHO1 141809Z 30002KT 37/05 A301 RMK A01 T03690048  RH  014%=      5-min Rain = 0
KHO1 141810Z 24001KT 37/05 A301 RMK A01 T03690046  RH  014%=      5-min Rain = 0
KHO1 141811Z 17000KT 37/05 A301 RMK A01 T03680048  RH  014%=      5-min Rain = 0
KHO1 141812Z 01001KT 37/05 A301 RMK A01 T03650045  RH  014%=      5-min Rain = 0
KHO1 141813Z 35003KT 37/05 A301 RMK A01 T03650050  RH  014%=      5-min Rain = 0
KHO1 141814Z 36003KT 36/05 A301 RMK A01 T03640050  RH  014%=      5-min Rain = 0
KHO1 141815Z 35001KT 36/05 A301 RMK A01 T03640050  RH  014%=      5-min Rain = 0
KHO1 141816Z 32002KT 37/05 A301 RMK A01 T03650051  RH  014%=      5-min Rain = 0
KHO1 141817Z 30002KT 37/05 A301 RMK A01 T03670051  RH  014%=      5-min Rain = 0
KHO1 141818Z 33002KT 37/05 A301 RMK A01 T03700054  RH  014%=      5-min Rain = 0
KHO1 141819Z 33003KT 37/05 A301 RMK A01 T03710052  RH  014%=      5-min Rain = 0
KHO1 141820Z 30002KT 37/05 A301 RMK A01 T03690050  RH  014%=      5-min Rain = 0
KHO1 141821Z 31002KT 37/05 A301 RMK A01 T03680050  RH  014%=      5-min Rain = 0
KHO1 141822Z 32001KT 37/05 A301 RMK A01 T03700053  RH  014%=      5-min Rain = 0
KHO1 141823Z 03002KT 37/05 A301 RMK A01 T03730050  RH  014%=      5-min Rain = 0
KHO1 141824Z 03004KT 37/05 A301 RMK A01 T03740049  RH  013%=      5-min Rain = 0
KHO1 141825Z 03004KT 38/05 A301 RMK A01 T03750046  RH  013%=      5-min Rain = 0
KHO1 141826Z 03002KT 37/05 A301 RMK A01 T03740045  RH  013%=      5-min Rain = 0
KHO1 141827Z 03002KT 37/05 A301 RMK A01 T03730046  RH  013%=      5-min Rain = 0
KHO1 141828Z 30002KT 37/05 A301 RMK A01 T03740046  RH  013%=      5-min Rain = 0
KHO1 141829Z 27002KT 38/05 A301 RMK A01 T03750046  RH  013%=      5-min Rain = 0
KHO1 141830Z 28002KT 38/04 A301 RMK A01 T03760044  RH  013%=      5-min Rain = 0
KHO1 141831Z 31002KT 38/05 A301 RMK A01 T03770046  RH  013%=      5-min Rain = 0
KHO1 141832Z 33002KT 38/05 A301 RMK A01 T03760046  RH  013%=      5-min Rain = 0
KHO1 141833Z 29001KT 38/05 A301 RMK A01 T03760048  RH  013%=      5-min Rain = 0
KHO1 141834Z 24002KT 38/05 A301 RMK A01 T03780046  RH  013%=      5-min Rain = 0
KHO1 141835Z 23003KT 38/04 A301 RMK A01 T03780044  RH  013%=      5-min Rain = 0
KHO1 141836Z 22002KT 38/04 A3009 RMK A01 T03780043  RH  013%=      5-min Rain = 0
KHO1 141837Z 20001KT 38/04 A301 RMK A01 T03770042  RH  013%=      5-min Rain = 0
KHO1 141838Z 13000KT 38/04 A3009 RMK A01 T03770043  RH  013%=      5-min Rain = 0
KHO1 141839Z 05001KT 38/04 A301 RMK A01 T03780044  RH  013%=      5-min Rain = 0
KHO1 141840Z 00002KT 38/04 A3009 RMK A01 T03790044  RH  013%=      5-min Rain = 0
KHO1 141841Z 35003KT 38/04 A3009 RMK A01 T03790044  RH  013%=      5-min Rain = 0
KHO1 141842Z 35002KT 38/04 A3009 RMK A01 T03790044  RH  013%=      5-min Rain = 0
KHO1 141843Z 03001KT 38/05 A3009 RMK A01 T03800046  RH  013%=      5-min Rain = 0
KHO1 141844Z 14004KT 38/04 A3009 RMK A01 T03800043  RH  012%=      5-min Rain = 0
KHO1 141845Z 14003KT 38/04 A3009 RMK A01 T03780042  RH  013%=      5-min Rain = 0
KHO1 141846Z 15005KT 38/04 A3009 RMK A01 T03800044  RH  013%=      5-min Rain = 0
KHO1 141847Z 14007KT 38/04 A3009 RMK A01 T03780041  RH  012%=      5-min Rain = 0
KHO1 141848Z 14005KT 38/04 A3009 RMK A01 T03790041  RH  012%=      5-min Rain = 0
KHO1 141849Z 15005KT 38/04 A3009 RMK A01 T03800040  RH  012%=      5-min Rain = 0
KHO1 141850Z 14006KT 38/04 A3009 RMK A01 T03790036  RH  012%=      5-min Rain = 0
KHO1 141851Z 15007KT 38/03 A3009 RMK A01 T03760031  RH  012%=      5-min Rain = 0
KHO1 141852Z 14007KT 37/04 A3009 RMK A01 T03730036  RH  012%=      5-min Rain = 0
KHO1 141853Z 13006KT 37/04 A3009 RMK A01 T03730037  RH  012%=      5-min Rain = 0
KHO1 141854Z 14005KT 37/04 A3009 RMK A01 T03730037  RH  012%=      5-min Rain = 0
KHO1 141855Z 12006KT 37/04 A3009 RMK A01 T03740039  RH  013%=      5-min Rain = 0
KHO1 141856Z 11006KT 38/04 A3009 RMK A01 T03770039  RH  012%=      5-min Rain = 0
KHO1 141857Z 13002KT 38/04 A3009 RMK A01 T03780038  RH  012%=      5-min Rain = 0
KHO1 141858Z 11006KT 38/04 A3009 RMK A01 T03800039  RH  012%=      5-min Rain = 0
KHO1 141859Z 13008KT 38/04 A3009 RMK A01 T03810037  RH  012%=      5-min Rain = 0
KHO1 141900Z 14006KT 38/04 A3009 RMK A01 T03780038  RH  012%=      5-min Rain = 0
KHO1 141901Z 11003G9KT 38/04 A3009 RMK A01 T03780038  RH  012%=      5-min Rain = 0
KHO1 141902Z 08004KT 38/04 A3009 RMK A01 T03810042  RH  012%=      5-min Rain = 0
KHO1 141903Z 08002KT 39/04 A3009 RMK A01 T03860043  RH  012%=      5-min Rain = 0
KHO1 141904Z 10002KT 39/04 A3009 RMK A01 T03900041  RH  012%=      5-min Rain = 0
KHO1 141905Z 18001KT 39/04 A3009 RMK A01 T03860035  RH  011%=      5-min Rain = 0
KHO1 141906Z 18003KT 38/03 A3008 RMK A01 T03820033  RH  012%=      5-min Rain = 0
KHO1 141907Z 19003KT 38/03 A3008 RMK A01 T03770030  RH  012%=      5-min Rain = 0
KHO1 141908Z 18003KT 38/03 A3008 RMK A01 T03760028  RH  012%=      5-min Rain = 0
KHO1 141909Z 18003KT 38/03 A3008 RMK A01 T03750030  RH  012%=      5-min Rain = 0
KHO1 141910Z 21004KT 38/04 A3008 RMK A01 T03750035  RH  012%=      5-min Rain = 0
KHO1 141911Z 21008G13KT 37/04 A3008 RMK A01 T03740037  RH  012%=      5-min Rain = 0
KHO1 141912Z 11007KT 38/04 A3008 RMK A01 T03780038  RH  012%=      5-min Rain = 0
KHO1 141913Z 13003KT 38/03 A3008 RMK A01 T03770034  RH  012%=      5-min Rain = 0
KHO1 141914Z 18004KT 38/03 A3008 RMK A01 T03750034  RH  012%=      5-min Rain = 0
KHO1 141915Z 19004KT 37/03 A3008 RMK A01 T03740034  RH  012%=      5-min Rain = 0
KHO1 141916Z 19005KT 37/04 A3008 RMK A01 T03710035  RH  012%=      5-min Rain = 0
KHO1 141917Z 21004KT 37/04 A3008 RMK A01 T03690035  RH  013%=      5-min Rain = 0
KHO1 141918Z 21004KT 37/04 A3008 RMK A01 T03680035  RH  013%=      5-min Rain = 0
KHO1 141919Z 22002KT 37/04 A3008 RMK A01 T03670035  RH  013%=      5-min Rain = 0
KHO1 141920Z 20004KT 37/04 A3008 RMK A01 T03680036  RH  013%=      5-min Rain = 0
KHO1 141921Z 20004KT 37/04 A3008 RMK A01 T03690036  RH  013%=      5-min Rain = 0
KHO1 141922Z 18004KT 37/04 A3008 RMK A01 T03700039  RH  013%=      5-min Rain = 0
KHO1 141923Z 18002KT 37/04 A3008 RMK A01 T03720037  RH  013%=      5-min Rain = 0
KHO1 141924Z 17003KT 37/04 A3008 RMK A01 T03730036  RH  012%=      5-min Rain = 0
KHO1 141925Z 19003KT 37/04 A3008 RMK A01 T03720035  RH  012%=      5-min Rain = 0
KHO1 141926Z 19003KT 37/04 A3008 RMK A01 T03720035  RH  012%=      5-min Rain = 0
KHO1 141927Z 18004KT 37/04 A3008 RMK A01 T03710036  RH  012%=      5-min Rain = 0
KHO1 141928Z 20002KT 37/04 A3008 RMK A01 T03700035  RH  013%=      5-min Rain = 0
KHO1 141929Z 20001KT 37/04 A3008 RMK A01 T03700037  RH  013%=      5-min Rain = 0
KHO1 141930Z 20000KT 37/04 A3007 RMK A01 T03730038  RH  013%=      5-min Rain = 0
KHO1 141931Z 14001KT 38/04 A3007 RMK A01 T03780043  RH  013%=      5-min Rain = 0
KHO1 141932Z 12004KT 38/04 A3007 RMK A01 T03830041  RH  012%=      5-min Rain = 0
KHO1 141933Z 15004KT 38/04 A3007 RMK A01 T03840040  RH  012%=      5-min Rain = 0
KHO1 141934Z 14004KT 39/04 A3007 RMK A01 T03870041  RH  012%=      5-min Rain = 0
KHO1 141935Z 15003KT 39/04 A3007 RMK A01 T03860037  RH  012%=      5-min Rain = 0
KHO1 141936Z 13003KT 38/04 A3007 RMK A01 T03840037  RH  012%=      5-min Rain = 0
KHO1 141937Z 12004KT 39/04 A3007 RMK A01 T03870042  RH  012%=      5-min Rain = 0
KHO1 141938Z 13004KT 39/04 A3007 RMK A01 T03910042  RH  012%=      5-min Rain = 0
KHO1 141939Z 15004KT 39/04 A3007 RMK A01 T03900036  RH  011%=      5-min Rain = 0
KHO1 141940Z 14003KT 38/04 A3007 RMK A01 T03840035  RH  012%=      5-min Rain = 0
KHO1 141941Z 15004KT 38/04 A3007 RMK A01 T03840037  RH  012%=      5-min Rain = 0
KHO1 141942Z 14005KT 39/04 A3007 RMK A01 T03860038  RH  012%=      5-min Rain = 0
KHO1 141943Z 15007KT 38/04 A3007 RMK A01 T03840035  RH  012%=      5-min Rain = 0
KHO1 141944Z 12002KT 38/03 A3007 RMK A01 T03790031  RH  012%=      5-min Rain = 0
KHO1 141945Z 06002KT 38/04 A3007 RMK A01 T03800036  RH  012%=      5-min Rain = 0
KHO1 141946Z 12005KT 38/04 A3007 RMK A01 T03840039  RH  012%=      5-min Rain = 0
KHO1 141947Z 14006KT 38/03 A3007 RMK A01 T03840033  RH  011%=      5-min Rain = 0
KHO1 141948Z 15004KT 38/03 A3007 RMK A01 T03780027  RH  011%=      5-min Rain = 0
KHO1 141949Z 09001KT 38/03 A3007 RMK A01 T03780029  RH  012%=      5-min Rain = 0
KHO1 141950Z 17004G9KT 38/03 A3006 RMK A01 T03830034  RH  012%=      5-min Rain = 0
KHO1 141951Z 15007KT 39/04 A3006 RMK A01 T03910035  RH  011%=      5-min Rain = 0
KHO1 141952Z 15006KT 39/03 A3006 RMK A01 T03880031  RH  011%=      5-min Rain = 0
KHO1 141953Z 16006G11KT 39/03 A3006 RMK A01 T03910034  RH  011%=      5-min Rain = 0
KHO1 141954Z 16009KT 39/03 A3006 RMK A01 T03860027  RH  011%=      5-min Rain = 0
KHO1 141955Z 15007KT 38/03 A3006 RMK A01 T03810029  RH  011%=      5-min Rain = 0
KHO1 141956Z 17005KT 38/03 A3006 RMK A01 T03840029  RH  011%=      5-min Rain = 0
KHO1 141957Z 20005KT 38/03 A3006 RMK A01 T03840029  RH  011%=      5-min Rain = 0
KHO1 141958Z 20007KT 39/03 A3006 RMK A01 T03860028  RH  011%=      5-min Rain = 0
KHO1 141959Z 22008KT 39/03 A3006 RMK A01 T03890030  RH  011%=      5-min Rain = 0
KHO1 142000Z 23007KT 39/03 A3006 RMK A01 T03890027  RH  011%=      5-min Rain = 0
KHO1 142001Z 24004KT 39/03 A3006 RMK A01 T03850026  RH  011%=      5-min Rain = 0
KHO1 142002Z 21008G14KT 38/03 A3006 RMK A01 T03840027  RH  011%=      5-min Rain = 0
KHO1 142003Z 22011KT 39/03 A3006 RMK A01 T03850029  RH  011%=      5-min Rain = 0
KHO1 142004Z 22012G17KT 39/03 A3006 RMK A01 T03880030  RH  011%=      5-min Rain = 0
KHO1 142005Z 22013KT 39/03 A3006 RMK A01 T03880028  RH  011%=      5-min Rain = 0
KHO1 142006Z 23012KT 39/03 A3006 RMK A01 T03900030  RH  011%=      5-min Rain = 0
KHO1 142007Z 23013KT 39/03 A3006 RMK A01 T03900027  RH  011%=      5-min Rain = 0
KHO1 142008Z 22012KT 39/03 A3006 RMK A01 T03860027  RH  011%=      5-min Rain = 0
KHO1 142009Z 21012KT 39/03 A3006 RMK A01 T03850027  RH  011%=      5-min Rain = 0
KHO1 142010Z 21012KT 39/03 A3006 RMK A01 T03850027  RH  011%=      5-min Rain = 0
KHO1 142011Z 21011KT 38/03 A3006 RMK A01 T03840028  RH  011%=      5-min Rain = 0
KHO1 142012Z 20009KT 38/03 A3006 RMK A01 T03820030  RH  011%=      5-min Rain = 0
KHO1 142013Z 23013KT 39/03 A3006 RMK A01 T03870031  RH  011%=      5-min Rain = 0
KHO1 142014Z 21011KT 39/03 A3006 RMK A01 T03890031  RH  011%=      5-min Rain = 0
KHO1 142015Z 21010KT 39/03 A3006 RMK A01 T03880029  RH  011%=      5-min Rain = 0
KHO1 142016Z 21013KT 39/03 A3006 RMK A01 T03880030  RH  011%=      5-min Rain = 0
KHO1 142017Z 21013KT 39/03 A3006 RMK A01 T03870029  RH  011%=      5-min Rain = 0
KHO1 142018Z 21008KT 39/03 A3006 RMK A01 T03850029  RH  011%=      5-min Rain = 0
KHO1 142019Z 23010G15KT 39/03 A3006 RMK A01 T03870032  RH  011%=      5-min Rain = 0
KHO1 142020Z 25010KT 39/03 A3006 RMK A01 T03890030  RH  011%=      5-min Rain = 0
KHO1 142021Z 22008KT 39/03 A3006 RMK A01 T03890032  RH  011%=      5-min Rain = 0
KHO1 142022Z 21011KT 39/03 A3006 RMK A01 T03900032  RH  011%=      5-min Rain = 0
KHO1 142023Z 20009KT 39/03 A3006 RMK A01 T03920034  RH  011%=      5-min Rain = 0
KHO1 142024Z 19011KT 39/03 A3006 RMK A01 T03890029  RH  011%=      5-min Rain = 0
KHO1 142025Z 20010KT 39/03 A3006 RMK A01 T03870031  RH  011%=      5-min Rain = 0
KHO1 142026Z 20009KT 39/03 A3005 RMK A01 T03890033  RH  011%=      5-min Rain = 0
KHO1 142027Z 21006KT 39/03 A3005 RMK A01 T03920033  RH  011%=      5-min Rain = 0
KHO1 142028Z 22010KT 39/03 A3005 RMK A01 T03940033  RH  011%=      5-min Rain = 0
KHO1 142029Z 18014KT 39/03 A3005 RMK A01 T03920030  RH  011%=      5-min Rain = 0
KHO1 142030Z 18012KT 39/03 A3005 RMK A01 T03870030  RH  011%=      5-min Rain = 0
KHO1 142031Z 19013KT 39/03 A3005 RMK A01 T03850030  RH  011%=      5-min Rain = 0
KHO1 142032Z 20011KT 38/03 A3005 RMK A01 T03830028  RH  011%=      5-min Rain = 0
KHO1 142033Z 20012KT 38/03 A3005 RMK A01 T03790028  RH  011%=      5-min Rain = 0
KHO1 142034Z 20010KT 38/03 A3005 RMK A01 T03760027  RH  011%=      5-min Rain = 0
KHO1 142035Z 20010KT 37/03 A3005 RMK A01 T03740027  RH  012%=      5-min Rain = 0
KHO1 142036Z 20006KT 37/03 A3005 RMK A01 T03720027  RH  012%=      5-min Rain = 0
KHO1 142037Z 19011KT 37/03 A3005 RMK A01 T03730029  RH  012%=      5-min Rain = 0
KHO1 142038Z 20008KT 37/03 A3005 RMK A01 T03740028  RH  012%=      5-min Rain = 0
KHO1 142039Z 20007KT 37/03 A3005 RMK A01 T03730027  RH  012%=      5-min Rain = 0
KHO1 142040Z 20007KT 37/03 A3005 RMK A01 T03730029  RH  012%=      5-min Rain = 0
KHO1 142041Z 19006KT 37/03 A3005 RMK A01 T03740027  RH  012%=      5-min Rain = 0
KHO1 142042Z 19007KT 37/03 A3005 RMK A01 T03710027  RH  012%=      5-min Rain = 0
KHO1 142043Z 18007KT 37/03 A3005 RMK A01 T03700026  RH  012%=      5-min Rain = 0
KHO1 142044Z 19005KT 37/03 A3005 RMK A01 T03690027  RH  012%=      5-min Rain = 0
KHO1 142045Z 22006KT 37/03 A3005 RMK A01 T03700027  RH  012%=      5-min Rain = 0
KHO1 142046Z 21005KT 37/03 A3005 RMK A01 T03700029  RH  012%=      5-min Rain = 0
KHO1 142047Z 19008KT 37/03 A3005 RMK A01 T03720029  RH  012%=      5-min Rain = 0
KHO1 142048Z 20006KT 37/03 A3005 RMK A01 T03720028  RH  012%=      5-min Rain = 0
KHO1 142049Z 22005KT 37/03 A3005 RMK A01 T03730028  RH  012%=      5-min Rain = 0
KHO1 142050Z 22005KT 37/03 A3005 RMK A01 T03740028  RH  012%=      5-min Rain = 0
KHO1 142051Z 22002KT 37/03 A3005 RMK A01 T03740027  RH  012%=      5-min Rain = 0
KHO1 142052Z 19006KT 37/03 A3005 RMK A01 T03740028  RH  012%=      5-min Rain = 0
KHO1 142053Z 17006KT 37/03 A3005 RMK A01 T03730029  RH  012%=      5-min Rain = 0
KHO1 142054Z 17005KT 37/03 A3005 RMK A01 T03730028  RH  012%=      5-min Rain = 0
KHO1 142055Z 20006KT 37/03 A3005 RMK A01 T03710028  RH  012%=      5-min Rain = 0
KHO1 142056Z 21006KT 37/03 A3005 RMK A01 T03710028  RH  012%=      5-min Rain = 0
KHO1 142057Z 22005KT 37/03 A3004 RMK A01 T03710027  RH  012%=      5-min Rain = 0
KHO1 142058Z 20004KT 37/03 A3004 RMK A01 T03700027  RH  012%=      5-min Rain = 0
KHO1 142059Z 20004KT 37/03 A3004 RMK A01 T03690027  RH  012%=      5-min Rain = 0
KHO1 142100Z 20005KT 37/03 A3004 RMK A01 T03710030  RH  012%=      5-min Rain = 0
KHO1 142101Z 20007KT 37/03 A3004 RMK A01 T03740031  RH  012%=      5-min Rain = 0
KHO1 142102Z 22009KT 37/03 A3004 RMK A01 T03740029  RH  012%=      5-min Rain = 0
KHO1 142103Z 21006KT 37/03 A3004 RMK A01 T03730029  RH  012%=      5-min Rain = 0
KHO1 142104Z 20007KT 37/03 A3004 RMK A01 T03740029  RH  012%=      5-min Rain = 0
KHO1 142105Z 22002KT 38/03 A3004 RMK A01 T03750029  RH  012%=      5-min Rain = 0
KHO1 142106Z 08001KT 38/03 A3004 RMK A01 T03770029  RH  012%=      5-min Rain = 0
KHO1 142107Z 18005G12KT 38/03 A3004 RMK A01 T03780032  RH  012%=      5-min Rain = 0
KHO1 142108Z 22008KT 38/03 A3004 RMK A01 T03800029  RH  011%=      5-min Rain = 0
KHO1 142109Z 21007KT 38/03 A3004 RMK A01 T03760027  RH  011%=      5-min Rain = 0
KHO1 142110Z 20006KT 37/03 A3004 RMK A01 T03730027  RH  012%=      5-min Rain = 0
KHO1 142111Z 18003KT 37/03 A3004 RMK A01 T03710027  RH  012%=      5-min Rain = 0
KHO1 142112Z 17007KT 37/03 A3004 RMK A01 T03720030  RH  012%=      5-min Rain = 0
KHO1 142113Z 17008KT 38/03 A3004 RMK A01 T03750031  RH  012%=      5-min Rain = 0
KHO1 142114Z 15006KT 38/03 A3004 RMK A01 T03750029  RH  012%=      5-min Rain = 0
KHO1 142115Z 15004KT 37/03 A3004 RMK A01 T03720025  RH  012%=      5-min Rain = 0
KHO1 142116Z 14005KT 37/03 A3004 RMK A01 T03700027  RH  012%=      5-min Rain = 0
KHO1 142117Z 16006KT 37/03 A3004 RMK A01 T03710028  RH  012%=      5-min Rain = 0
KHO1 142118Z 16004KT 37/03 A3003 RMK A01 T03710027  RH  012%=      5-min Rain = 0
KHO1 142119Z 15003KT 37/03 A3003 RMK A01 T03700025  RH  012%=      5-min Rain = 0
KHO1 142120Z 15001KT 37/03 A3003 RMK A01 T03690026  RH  012%=      5-min Rain = 0
KHO1 142121Z 13004KT 37/03 A3003 RMK A01 T03700028  RH  012%=      5-min Rain = 0
KHO1 142122Z 12005KT 37/03 A3003 RMK A01 T03700027  RH  012%=      5-min Rain = 0
KHO1 142123Z 13006KT 37/03 A3003 RMK A01 T03720028  RH  012%=      5-min Rain = 0
KHO1 142124Z 12007KT 37/03 A3003 RMK A01 T03720026  RH  012%=      5-min Rain = 0
KHO1 142125Z 13005KT 37/03 A3003 RMK A01 T03700025  RH  012%=      5-min Rain = 0
KHO1 142126Z 13003KT 37/03 A3003 RMK A01 T03710025  RH  012%=      5-min Rain = 0
KHO1 142127Z 12002KT 37/03 A3003 RMK A01 T03710028  RH  012%=      5-min Rain = 0
KHO1 142128Z 11002KT 37/03 A3003 RMK A01 T03730028  RH  012%=      5-min Rain = 0
KHO1 142129Z 14002KT 37/03 A3003 RMK A01 T03740025  RH  011%=      5-min Rain = 0
KHO1 142130Z 16003KT 37/03 A3003 RMK A01 T03730028  RH  012%=      5-min Rain = 0
KHO1 142131Z 17005KT 37/03 A3003 RMK A01 T03740029  RH  012%=      5-min Rain = 0
KHO1 142132Z 18007KT 38/03 A3003 RMK A01 T03750033  RH  012%=      5-min Rain = 0
KHO1 142133Z 20006KT 38/03 A3003 RMK A01 T03750031  RH  012%=      5-min Rain = 0
KHO1 142134Z 18007KT 38/03 A3003 RMK A01 T03750031  RH  012%=      5-min Rain = 0
KHO1 142135Z 17006KT 37/03 A3003 RMK A01 T03740030  RH  012%=      5-min Rain = 0
KHO1 142136Z 20006KT 37/03 A3003 RMK A01 T03740032  RH  012%=      5-min Rain = 0
KHO1 142137Z 19004KT 37/03 A3003 RMK A01 T03740029  RH  012%=      5-min Rain = 0
KHO1 142138Z 19004KT 37/03 A3003 RMK A01 T03720030  RH  012%=      5-min Rain = 0
KHO1 142139Z 17008KT 37/03 A3003 RMK A01 T03740034  RH  012%=      5-min Rain = 0
KHO1 142140Z 19009KT 37/03 A3003 RMK A01 T03740031  RH  012%=      5-min Rain = 0
KHO1 142141Z 19007KT 37/03 A3003 RMK A01 T03730029  RH  012%=      5-min Rain = 0
KHO1 142142Z 18006KT 37/03 A3002 RMK A01 T03710029  RH  012%=      5-min Rain = 0
KHO1 142143Z 19006KT 37/03 A3003 RMK A01 T03710030  RH  012%=      5-min Rain = 0
KHO1 142144Z 19009KT 37/03 A3003 RMK A01 T03710028  RH  012%=      5-min Rain = 0
KHO1 142145Z 19008KT 37/03 A3002 RMK A01 T03700029  RH  012%=      5-min Rain = 0
KHO1 142146Z 19007KT 37/03 A3002 RMK A01 T03710031  RH  012%=      5-min Rain = 0
KHO1 142147Z 22006KT 37/03 A3002 RMK A01 T03710029  RH  012%=      5-min Rain = 0
KHO1 142148Z 22007KT 37/03 A3002 RMK A01 T03710028  RH  012%=      5-min Rain = 0
KHO1 142149Z 23007KT 37/03 A3002 RMK A01 T03710028  RH  012%=      5-min Rain = 0
KHO1 142150Z 22006KT 37/03 A3002 RMK A01 T03710030  RH  012%=      5-min Rain = 0
KHO1 142151Z 18007KT 37/03 A3002 RMK A01 T03730030  RH  012%=      5-min Rain = 0
KHO1 142152Z 17006KT 37/03 A3002 RMK A01 T03720029  RH  012%=      5-min Rain = 0
KHO1 142153Z 18008KT 37/03 A3002 RMK A01 T03730031  RH  012%=      5-min Rain = 0
KHO1 142154Z 20010KT 38/03 A3002 RMK A01 T03770032  RH  012%=      5-min Rain = 0
KHO1 142155Z 20007KT 38/03 A3002 RMK A01 T03800032  RH  012%=      5-min Rain = 0
KHO1 142156Z 22007KT 38/03 A3002 RMK A01 T03820032  RH  011%=      5-min Rain = 0
KHO1 142157Z 21006KT 38/03 A3002 RMK A01 T03840031  RH  011%=      5-min Rain = 0
KHO1 142158Z 20006KT 39/03 A3002 RMK A01 T03850032  RH  011%=      5-min Rain = 0
KHO1 142159Z 19005KT 39/03 A3002 RMK A01 T03860031  RH  011%=      5-min Rain = 0
KHO1 142200Z 20005KT 38/03 A3002 RMK A01 T03830030  RH  011%=      5-min Rain = 0
KHO1 142201Z 22008KT 38/03 A3002 RMK A01 T03830028  RH  011%=      5-min Rain = 0
KHO1 142202Z 21007KT 38/03 A3002 RMK A01 T03800027  RH  011%=      5-min Rain = 0
KHO1 142203Z 20006KT 38/03 A3002 RMK A01 T03800029  RH  011%=      5-min Rain = 0
KHO1 142204Z 18007KT 38/03 A3002 RMK A01 T03810029  RH  011%=      5-min Rain = 0
KHO1 142205Z 18006KT 38/03 A3002 RMK A01 T03810029  RH  011%=      5-min Rain = 0
KHO1 142206Z 18005KT 38/03 A3002 RMK A01 T03810029  RH  011%=      5-min Rain = 0
KHO1 142207Z 19004KT 38/03 A3002 RMK A01 T03820030  RH  011%=      5-min Rain = 0
KHO1 142208Z 20003KT 38/03 A3002 RMK A01 T03830028  RH  011%=      5-min Rain = 0
KHO1 142209Z 19009KT 38/03 A3002 RMK A01 T03820031  RH  011%=      5-min Rain = 0
KHO1 142210Z 18009KT 38/03 A3002 RMK A01 T03810032  RH  012%=      5-min Rain = 0
KHO1 142211Z 18006KT 38/03 A3002 RMK A01 T03830033  RH  012%=      5-min Rain = 0
KHO1 142212Z 17004KT 38/03 A3002 RMK A01 T03820031  RH  011%=      5-min Rain = 0
KHO1 142213Z 17006KT 38/03 A3002 RMK A01 T03810031  RH  011%=      5-min Rain = 0
KHO1 142214Z 19008KT 38/03 A3002 RMK A01 T03810032  RH  012%=      5-min Rain = 0
KHO1 142215Z 20008KT 38/03 A3002 RMK A01 T03810031  RH  011%=      5-min Rain = 0
KHO1 142216Z 20007KT 38/03 A3001 RMK A01 T03840032  RH  011%=      5-min Rain = 0
KHO1 142217Z 20007G12KT 38/03 A3001 RMK A01 T03840031  RH  011%=      5-min Rain = 0
KHO1 142218Z 23008KT 39/03 A3001 RMK A01 T03850027  RH  011%=      5-min Rain = 0
KHO1 142219Z 24004KT 38/03 A3001 RMK A01 T03830025  RH  011%=      5-min Rain = 0
KHO1 142220Z 23005KT 38/03 A3001 RMK A01 T03820028  RH  011%=      5-min Rain = 0
KHO1 142221Z 23004KT 39/03 A3001 RMK A01 T03850028  RH  011%=      5-min Rain = 0
KHO1 142222Z 22007KT 39/03 A3001 RMK A01 T03860029  RH  011%=      5-min Rain = 0
KHO1 142223Z 22007KT 39/03 A3001 RMK A01 T03860029  RH  011%=      5-min Rain = 0
KHO1 142224Z 22008KT 38/03 A3001 RMK A01 T03840029  RH  011%=      5-min Rain = 0
KHO1 142225Z 23006KT 39/03 A3001 RMK A01 T03850030  RH  011%=      5-min Rain = 0
KHO1 142226Z 22006KT 39/03 A3001 RMK A01 T03860030  RH  011%=      5-min Rain = 0
KHO1 142227Z 20009G14KT 39/03 A3001 RMK A01 T03850031  RH  011%=      5-min Rain = 0
KHO1 142228Z 19011KT 38/03 A3001 RMK A01 T03840029  RH  011%=      5-min Rain = 0
KHO1 142229Z 20010KT 38/03 A3001 RMK A01 T03790027  RH  011%=      5-min Rain = 0
KHO1 142230Z 20009KT 38/03 A3001 RMK A01 T03760027  RH  011%=      5-min Rain = 0
KHO1 142231Z 19010KT 37/03 A3001 RMK A01 T03740026  RH  011%=      5-min Rain = 0
KHO1 142232Z 18007KT 37/03 A3001 RMK A01 T03720025  RH  012%=      5-min Rain = 0
KHO1 142233Z 17006KT 37/03 A3001 RMK A01 T03700026  RH  012%=      5-min Rain = 0
KHO1 142234Z 18008KT 37/03 A3001 RMK A01 T03700028  RH  012%=      5-min Rain = 0
KHO1 142235Z 21007KT 37/03 A3001 RMK A01 T03700029  RH  012%=      5-min Rain = 0
KHO1 142236Z 21006KT 37/03 A3001 RMK A01 T03710030  RH  012%=      5-min Rain = 0
KHO1 142237Z 19005KT 37/03 A3001 RMK A01 T03720030  RH  012%=      5-min Rain = 0
KHO1 142238Z 19006KT 37/03 A3001 RMK A01 T03720031  RH  012%=      5-min Rain = 0
KHO1 142239Z 18005KT 37/03 A3001 RMK A01 T03720032  RH  012%=      5-min Rain = 0
KHO1 142240Z 17006KT 37/03 A3001 RMK A01 T03730032  RH  012%=      5-min Rain = 0
KHO1 142241Z 17007KT 37/03 A3001 RMK A01 T03710030  RH  012%=      5-min Rain = 0
KHO1 142242Z 19011KT 37/03 A3001 RMK A01 T03720031  RH  012%=      5-min Rain = 0
KHO1 142243Z 20011KT 37/03 A3001 RMK A01 T03710029  RH  012%=      5-min Rain = 0
KHO1 142244Z 20008KT 37/03 A3001 RMK A01 T03720027  RH  012%=      5-min Rain = 0
KHO1 142245Z 21006KT 37/03 A3001 RMK A01 T03710027  RH  012%=      5-min Rain = 0
KHO1 142246Z 19005KT 37/03 A3001 RMK A01 T03720027  RH  012%=      5-min Rain = 0
KHO1 142247Z 19005KT 37/03 A3001 RMK A01 T03730028  RH  012%=      5-min Rain = 0
KHO1 142248Z 18005KT 38/03 A3001 RMK A01 T03750031  RH  012%=      5-min Rain = 0
KHO1 142249Z 18009KT 38/03 A3001 RMK A01 T03780031  RH  012%=      5-min Rain = 0
KHO1 142250Z 16009KT 38/03 A3001 RMK A01 T03780029  RH  011%=      5-min Rain = 0
KHO1 142251Z 17006KT 38/03 A3001 RMK A01 T03750026  RH  011%=      5-min Rain = 0
KHO1 142252Z 18006KT 37/03 A3001 RMK A01 T03720026  RH  012%=      5-min Rain = 0
KHO1 142253Z 18006KT 37/03 A3001 RMK A01 T03710027  RH  012%=      5-min Rain = 0
KHO1 142254Z 17007KT 37/03 A3001 RMK A01 T03720030  RH  012%=      5-min Rain = 0
KHO1 142255Z 18008KT 37/03 A3001 RMK A01 T03710029  RH  012%=      5-min Rain = 0
KHO1 142256Z 18005KT 37/03 A3001 RMK A01 T03700027  RH  012%=      5-min Rain = 0
KHO1 142257Z 19004KT 37/03 A3001 RMK A01 T03680027  RH  012%=      5-min Rain = 0
KHO1 142258Z 18007KT 37/03 A3001 RMK A01 T03680030  RH  012%=      5-min Rain = 0
KHO1 142259Z 18009KT 37/03 A3001 RMK A01 T03680030  RH  012%=      5-min Rain = 0
KHO1 142300Z 17007KT 37/03 A3001 RMK A01 T03670029  RH  012%=      5-min Rain = 0
KHO1 142301Z 16008KT 37/03 A3001 RMK A01 T03670030  RH  012%=      5-min Rain = 0
KHO1 142302Z 17009KT 37/03 A3001 RMK A01 T03670030  RH  012%=      5-min Rain = 0
KHO1 142303Z 20006KT 37/03 A3001 RMK A01 T03680031  RH  012%=      5-min Rain = 0
KHO1 142304Z 20006KT 37/03 A3001 RMK A01 T03690031  RH  012%=      5-min Rain = 0
KHO1 142305Z 21005KT 37/03 A3001 RMK A01 T03700031  RH  012%=      5-min Rain = 0
KHO1 142306Z 22004KT 37/03 A3001 RMK A01 T03730032  RH  012%=      5-min Rain = 0
KHO1 142307Z 24004KT 38/03 A3001 RMK A01 T03750032  RH  012%=      5-min Rain = 0
KHO1 142308Z 24004KT 38/04 A3001 RMK A01 T03780035  RH  012%=      5-min Rain = 0
KHO1 142309Z 22008KT 38/03 A3001 RMK A01 T03810033  RH  012%=      5-min Rain = 0
KHO1 142310Z 19007KT 38/03 A3001 RMK A01 T03810032  RH  012%=      5-min Rain = 0
KHO1 142311Z 19007KT 38/03 A3001 RMK A01 T03790030  RH  011%=      5-min Rain = 0
KHO1 142312Z 17007KT 38/03 A3001 RMK A01 T03770028  RH  011%=      5-min Rain = 0
KHO1 142313Z 18004KT 38/03 A3001 RMK A01 T03750027  RH  012%=      5-min Rain = 0
KHO1 142314Z 19005KT 38/03 A3001 RMK A01 T03760031  RH  012%=      5-min Rain = 0
KHO1 142315Z 19010KT 38/03 A3001 RMK A01 T03790034  RH  012%=      5-min Rain = 0
KHO1 142316Z 20011KT 38/03 A3001 RMK A01 T03810032  RH  012%=      5-min Rain = 0
KHO1 142317Z 21009KT 38/03 A3001 RMK A01 T03820032  RH  011%=      5-min Rain = 0
KHO1 142318Z 21008KT 38/03 A3001 RMK A01 T03800030  RH  011%=      5-min Rain = 0
KHO1 142319Z 20009KT 38/03 A3001 RMK A01 T03790031  RH  012%=      5-min Rain = 0
KHO1 142320Z 21008KT 38/03 A3001 RMK A01 T03800031  RH  012%=      5-min Rain = 0
KHO1 142321Z 20008G13KT 38/03 A3001 RMK A01 T03800031  RH  012%=      5-min Rain = 0
KHO1 142322Z 21008KT 38/03 A3001 RMK A01 T03790029  RH  011%=      5-min Rain = 0
KHO1 142323Z 21005KT 38/03 A3001 RMK A01 T03780029  RH  012%=      5-min Rain = 0
KHO1 142324Z 19006KT 38/03 A3001 RMK A01 T03790030  RH  012%=      5-min Rain = 0
KHO1 142325Z 19006KT 38/03 A3001 RMK A01 T03780029  RH  011%=      5-min Rain = 0
KHO1 142326Z 20007KT 38/03 A3001 RMK A01 T03780030  RH  012%=      5-min Rain = 0
KHO1 142327Z 23007KT 38/03 A3001 RMK A01 T03780031  RH  012%=      5-min Rain = 0
KHO1 142328Z 21012KT 38/03 A3001 RMK A01 T03790030  RH  011%=      5-min Rain = 0
KHO1 142329Z 22011KT 38/03 A3001 RMK A01 T03780029  RH  011%=      5-min Rain = 0
KHO1 142330Z 22011KT 38/03 A3001 RMK A01 T03770028  RH  011%=      5-min Rain = 0
KHO1 142331Z 21012KT 38/03 A3001 RMK A01 T03780029  RH  011%=      5-min Rain = 0
KHO1 142332Z 23011KT 38/03 A3001 RMK A01 T03780028  RH  011%=      5-min Rain = 0
KHO1 142333Z 23012KT 38/03 A3001 RMK A01 T03780028  RH  011%=      5-min Rain = 0
KHO1 142334Z 22008KT 38/03 A3001 RMK A01 T03780029  RH  011%=      5-min Rain = 0
KHO1 142335Z 23007KT 38/03 A3001 RMK A01 T03790029  RH  011%=      5-min Rain = 0
KHO1 142336Z 23006KT 38/03 A3001 RMK A01 T03810031  RH  011%=      5-min Rain = 0
KHO1 142337Z 24010KT 38/03 A3001 RMK A01 T03830030  RH  011%=      5-min Rain = 0
KHO1 142338Z 25009KT 38/03 A3001 RMK A01 T03820030  RH  011%=      5-min Rain = 0
KHO1 142339Z 23007KT 38/03 A3001 RMK A01 T03810028  RH  011%=      5-min Rain = 0
KHO1 142340Z 22006KT 38/03 A3001 RMK A01 T03790028  RH  011%=      5-min Rain = 0
KHO1 142341Z 22007KT 38/03 A3001 RMK A01 T03790031  RH  012%=      5-min Rain = 0
KHO1 142342Z 21010KT 38/03 A3001 RMK A01 T03790030  RH  011%=      5-min Rain = 0
KHO1 142343Z 21010KT 38/03 A3001 RMK A01 T03760028  RH  012%=      5-min Rain = 0
KHO1 142344Z 21010KT 37/03 A3001 RMK A01 T03740027  RH  012%=      5-min Rain = 0
KHO1 142345Z 20008KT 37/03 A3001 RMK A01 T03730029  RH  012%=      5-min Rain = 0
KHO1 142346Z 20008KT 37/03 A3001 RMK A01 T03730028  RH  012%=      5-min Rain = 0
KHO1 142347Z 19008KT 37/03 A3001 RMK A01 T03710026  RH  012%=      5-min Rain = 0
KHO1 142348Z 19011KT 37/03 A3001 RMK A01 T03700027  RH  012%=      5-min Rain = 0
KHO1 142349Z 19011KT 37/03 A3001 RMK A01 T03700028  RH  012%=      5-min Rain = 0
KHO1 142350Z 19010KT 37/03 A3001 RMK A01 T03700027  RH  012%=      5-min Rain = 0
KHO1 142351Z 19007KT 37/03 A3001 RMK A01 T03700026  RH  012%=      5-min Rain = 0
KHO1 142352Z 19006KT 37/03 A30 RMK A01 T03700027  RH  012%=      5-min Rain = 0
KHO1 142353Z 19008KT 37/03 A30 RMK A01 T03710029  RH  012%=      5-min Rain = 0
KHO1 142354Z 19010KT 37/03 A30 RMK A01 T03710028  RH  012%=      5-min Rain = 0
KHO1 142355Z 20010KT 37/03 A3001 RMK A01 T03710027  RH  012%=      5-min Rain = 0
KHO1 142356Z 20010KT 37/03 A3001 RMK A01 T03700027  RH  012%=      5-min Rain = 0
KHO1 142357Z 21008KT 37/03 A3001 RMK A01 T03700028  RH  012%=      5-min Rain = 0
KHO1 142358Z 22009KT 37/03 A30 RMK A01 T03700028  RH  012%=      5-min Rain = 0
KHO1 142359Z 22010KT 37/03 A30 RMK A01 T03700028  RH  012%=      5-min Rain = 0
KHO1 150000Z 21010KT 37/03 A30 RMK A01 T03700028  RH  012%=      5-min Rain = 0
KHO1 150001Z 22008KT 37/03 A30 RMK A01 T03700029  RH  012%=      5-min Rain = 0
KHO1 150002Z 23008KT 37/03 A30 RMK A01 T03710029  RH  012%=      5-min Rain = 0
KHO1 150003Z 22008KT 37/03 A30 RMK A01 T03720029  RH  012%=      5-min Rain = 0
KHO1 150004Z 21009KT 37/03 A30 RMK A01 T03720028  RH  012%=      5-min Rain = 0
KHO1 150005Z 22007KT 37/03 A30 RMK A01 T03710028  RH  012%=      5-min Rain = 0
KHO1 150006Z 20008KT 37/03 A30 RMK A01 T03710029  RH  012%=      5-min Rain = 0
KHO1 150007Z 20008KT 37/03 A30 RMK A01 T03700029  RH  012%=      5-min Rain = 0
KHO1 150008Z 19008KT 37/03 A30 RMK A01 T03700027  RH  012%=      5-min Rain = 0
KHO1 150009Z 19007KT 37/03 A30 RMK A01 T03690028  RH  012%=      5-min Rain = 0
KHO1 150010Z 20006KT 37/03 A30 RMK A01 T03680030  RH  012%=      5-min Rain = 0
KHO1 150011Z 20007KT 37/03 A30 RMK A01 T03670027  RH  012%=      5-min Rain = 0
KHO1 150012Z 20007KT 37/03 A30 RMK A01 T03670028  RH  012%=      5-min Rain = 0
KHO1 150013Z 20009KT 37/03 A30 RMK A01 T03670028  RH  012%=      5-min Rain = 0
KHO1 150014Z 21008KT 37/03 A30 RMK A01 T03670029  RH  012%=      5-min Rain = 0
KHO1 150015Z 20009KT 37/03 A30 RMK A01 T03680028  RH  012%=      5-min Rain = 0
KHO1 150016Z 20007KT 37/03 A30 RMK A01 T03680028  RH  012%=      5-min Rain = 0
KHO1 150017Z 19006KT 37/03 A30 RMK A01 T03680030  RH  012%=      5-min Rain = 0
KHO1 150018Z 20006KT 37/03 A30 RMK A01 T03670029  RH  012%=      5-min Rain = 0
KHO1 150019Z 19007KT 37/03 A30 RMK A01 T03670028  RH  012%=      5-min Rain = 0
KHO1 150020Z 19008KT 37/03 A30 RMK A01 T03660027  RH  012%=      5-min Rain = 0
KHO1 150021Z 19008KT 37/03 A30 RMK A01 T03650027  RH  012%=      5-min Rain = 0
KHO1 150022Z 19008KT 37/03 A30 RMK A01 T03650026  RH  012%=      5-min Rain = 0
KHO1 150023Z 19006KT 37/03 A30 RMK A01 T03650027  RH  012%=      5-min Rain = 0
KHO1 150024Z 19006KT 37/03 A3001 RMK A01 T03650029  RH  012%=      5-min Rain = 0
KHO1 150025Z 19006KT 36/03 A30 RMK A01 T03640029  RH  012%=      5-min Rain = 0
KHO1 150026Z 20006KT 36/03 A30 RMK A01 T03640029  RH  012%=      5-min Rain = 0
KHO1 150027Z 20007KT 36/03 A3001 RMK A01 T03640029  RH  012%=      5-min Rain = 0
KHO1 150028Z 20006KT 36/03 A3001 RMK A01 T03640029  RH  012%=      5-min Rain = 0
KHO1 150029Z 19006KT 36/03 A3001 RMK A01 T03640029  RH  012%=      5-min Rain = 0
KHO1 150030Z 20005KT 36/03 A3001 RMK A01 T03640030  RH  012%=      5-min Rain = 0
KHO1 150031Z 20005KT 36/03 A3001 RMK A01 T03630030  RH  013%=      5-min Rain = 0
KHO1 150032Z 20006KT 36/03 A3001 RMK A01 T03630030  RH  013%=      5-min Rain = 0
KHO1 150033Z 19007KT 36/03 A3001 RMK A01 T03630030  RH  013%=      5-min Rain = 0
KHO1 150034Z 18007KT 36/03 A3001 RMK A01 T03620029  RH  012%=      5-min Rain = 0
KHO1 150035Z 19006KT 36/03 A3001 RMK A01 T03620030  RH  013%=      5-min Rain = 0
KHO1 150036Z 19007KT 36/03 A3001 RMK A01 T03610031  RH  013%=      5-min Rain = 0
KHO1 150037Z 19008KT 36/03 A3001 RMK A01 T03610029  RH  013%=      5-min Rain = 0
KHO1 150038Z 19008KT 36/03 A3001 RMK A01 T03610029  RH  013%=      5-min Rain = 0
KHO1 150039Z 19008KT 36/03 A3001 RMK A01 T03620028  RH  012%=      5-min Rain = 0
KHO1 150040Z 19007KT 36/03 A3001 RMK A01 T03610029  RH  013%=      5-min Rain = 0
KHO1 150041Z 20007KT 36/03 A3001 RMK A01 T03610031  RH  013%=      5-min Rain = 0
KHO1 150042Z 20007KT 36/03 A3001 RMK A01 T03600029  RH  013%=      5-min Rain = 0
KHO1 150043Z 20007KT 36/03 A3001 RMK A01 T03590030  RH  013%=      5-min Rain = 0
KHO1 150044Z 19006KT 36/03 A3001 RMK A01 T03590030  RH  013%=      5-min Rain = 0
KHO1 150045Z 19006KT 36/03 A3001 RMK A01 T03580030  RH  013%=      5-min Rain = 0
KHO1 150046Z 19005KT 36/03 A3001 RMK A01 T03580029  RH  013%=      5-min Rain = 0
KHO1 150047Z 19006KT 36/03 A3001 RMK A01 T03580029  RH  013%=      5-min Rain = 0
KHO1 150048Z 19006KT 36/03 A3001 RMK A01 T03580029  RH  013%=      5-min Rain = 0
KHO1 150049Z 19006KT 36/03 A3001 RMK A01 T03570030  RH  013%=      5-min Rain = 0
KHO1 150050Z 19006KT 36/03 A3001 RMK A01 T03570030  RH  013%=      5-min Rain = 0
KHO1 150051Z 19006KT 36/03 A3001 RMK A01 T03560031  RH  013%=      5-min Rain = 0
KHO1 150052Z 19005KT 36/03 A3001 RMK A01 T03560031  RH  013%=      5-min Rain = 0
KHO1 150053Z 19005KT 36/03 A3001 RMK A01 T03550031  RH  013%=      5-min Rain = 0
KHO1 150054Z 19005KT 36/03 A3001 RMK A01 T03550032  RH  013%=      5-min Rain = 0
KHO1 150055Z 19005KT 35/03 A3001 RMK A01 T03540032  RH  013%=      5-min Rain = 0
KHO1 150056Z 19005KT 35/03 A3001 RMK A01 T03530032  RH  013%=      5-min Rain = 0
KHO1 150057Z 19005KT 35/03 A3001 RMK A01 T03530031  RH  013%=      5-min Rain = 0
KHO1 150058Z 19005KT 35/03 A3001 RMK A01 T03520032  RH  013%=      5-min Rain = 0
KHO1 150059Z 19005KT 35/03 A3001 RMK A01 T03520032  RH  013%=      5-min Rain = 0
KHO1 150100Z 19005KT 35/03 A3001 RMK A01 T03520032  RH  014%=      5-min Rain = 0
KHO1 150101Z 19005KT 35/03 A3001 RMK A01 T03510033  RH  014%=      5-min Rain = 0
KHO1 150102Z 19005KT 35/03 A3001 RMK A01 T03500034  RH  014%=      5-min Rain = 0
KHO1 150103Z 19005KT 35/04 A3001 RMK A01 T03500035  RH  014%=      5-min Rain = 0
KHO1 150104Z 19005KT 35/04 A3002 RMK A01 T03490036  RH  014%=      5-min Rain = 0
KHO1 150105Z 19005KT 35/04 A3002 RMK A01 T03480036  RH  014%=      5-min Rain = 0
KHO1 150106Z 19004KT 35/04 A3002 RMK A01 T03470035  RH  014%=      5-min Rain = 0
KHO1 150107Z 19004KT 35/04 A3002 RMK A01 T03470036  RH  014%=      5-min Rain = 0
KHO1 150108Z 18004KT 35/04 A3002 RMK A01 T03460036  RH  014%=      5-min Rain = 0
KHO1 150109Z 18004KT 35/04 A3002 RMK A01 T03450037  RH  015%=      5-min Rain = 0
KHO1 150110Z 18004KT 35/04 A3002 RMK A01 T03450035  RH  014%=      5-min Rain = 0
KHO1 150111Z 18005KT 35/04 A3002 RMK A01 T03460035  RH  014%=      5-min Rain = 0
KHO1 150112Z 18004KT 35/04 A3002 RMK A01 T03460035  RH  014%=      5-min Rain = 0
KHO1 150113Z 18004KT 35/04 A3002 RMK A01 T03460035  RH  014%=      5-min Rain = 0
KHO1 150114Z 18004KT 35/04 A3002 RMK A01 T03460035  RH  014%=      5-min Rain = 0
KHO1 150115Z 18004KT 35/04 A3002 RMK A01 T03460035  RH  014%=      5-min Rain = 0
KHO1 150116Z 18004KT 35/04 A3002 RMK A01 T03460035  RH  014%=      5-min Rain = 0
KHO1 150117Z 18004KT 35/04 A3002 RMK A01 T03450035  RH  014%=      5-min Rain = 0
KHO1 150118Z 18004KT 35/04 A3002 RMK A01 T03450035  RH  014%=      5-min Rain = 0
KHO1 150119Z 18004KT 35/04 A3002 RMK A01 T03450036  RH  014%=      5-min Rain = 0
KHO1 150120Z 17004KT 35/04 A3002 RMK A01 T03450035  RH  014%=      5-min Rain = 0
KHO1 150121Z 17004KT 35/04 A3002 RMK A01 T03450035  RH  014%=      5-min Rain = 0
KHO1 150122Z 17004KT 34/04 A3002 RMK A01 T03440035  RH  014%=      5-min Rain = 0
KHO1 150123Z 18004KT 34/04 A3002 RMK A01 T03440036  RH  015%=      5-min Rain = 0
KHO1 150124Z 18004KT 34/04 A3002 RMK A01 T03430037  RH  015%=      5-min Rain = 0
KHO1 150125Z 18004KT 34/04 A3002 RMK A01 T03420037  RH  015%=      5-min Rain = 0
KHO1 150126Z 18004KT 34/04 A3002 RMK A01 T03420038  RH  015%=      5-min Rain = 0
KHO1 150127Z 18004KT 34/04 A3002 RMK A01 T03410038  RH  015%=      5-min Rain = 0
KHO1 150128Z 18004KT 34/04 A3002 RMK A01 T03400037  RH  015%=      5-min Rain = 0
KHO1 150129Z 18004KT 34/04 A3002 RMK A01 T03390036  RH  015%=      5-min Rain = 0
KHO1 150130Z 18004KT 34/04 A3002 RMK A01 T03390036  RH  015%=      5-min Rain = 0
KHO1 150131Z 18005KT 34/04 A3002 RMK A01 T03390035  RH  015%=      5-min Rain = 0
KHO1 150132Z 17004KT 34/04 A3002 RMK A01 T03390035  RH  015%=      5-min Rain = 0
KHO1 150133Z 17004KT 34/04 A3002 RMK A01 T03400035  RH  015%=      5-min Rain = 0
KHO1 150134Z 17004KT 34/04 A3002 RMK A01 T03390036  RH  015%=      5-min Rain = 0
KHO1 150135Z 18004KT 34/04 A3002 RMK A01 T03390037  RH  015%=      5-min Rain = 0
KHO1 150136Z 18004KT 34/04 A3002 RMK A01 T03380037  RH  015%=      5-min Rain = 0
KHO1 150137Z 18004KT 34/04 A3002 RMK A01 T03370042  RH  016%=      5-min Rain = 0
KHO1 150138Z 17005KT 34/04 A3002 RMK A01 T03370039  RH  015%=      5-min Rain = 0
KHO1 150139Z 17005KT 34/04 A3002 RMK A01 T03360038  RH  015%=      5-min Rain = 0
KHO1 150140Z 17005KT 34/04 A3002 RMK A01 T03360038  RH  015%=      5-min Rain = 0
KHO1 150141Z 17005KT 34/04 A3002 RMK A01 T03360039  RH  016%=      5-min Rain = 0
KHO1 150142Z 17005KT 34/04 A3002 RMK A01 T03360038  RH  015%=      5-min Rain = 0
KHO1 150143Z 17005KT 34/04 A3002 RMK A01 T03350036  RH  015%=      5-min Rain = 0
KHO1 150144Z 17005KT 34/04 A3002 RMK A01 T03360035  RH  015%=      5-min Rain = 0
KHO1 150145Z 17005KT 34/04 A3002 RMK A01 T03360035  RH  015%=      5-min Rain = 0
KHO1 150146Z 17005KT 34/04 A3002 RMK A01 T03350035  RH  015%=      5-min Rain = 0
KHO1 150147Z 17005KT 34/04 A3002 RMK A01 T03350035  RH  015%=      5-min Rain = 0
KHO1 150148Z 17005KT 34/04 A3002 RMK A01 T03350035  RH  015%=      5-min Rain = 0
KHO1 150149Z 17004KT 33/04 A3002 RMK A01 T03340039  RH  016%=      5-min Rain = 0
KHO1 150150Z 18004KT 33/05 A3002 RMK A01 T03330046  RH  017%=      5-min Rain = 0
KHO1 150151Z 18004KT 33/05 A3002 RMK A01 T03310046  RH  017%=      5-min Rain = 0
KHO1 150152Z 18004KT 33/05 A3002 RMK A01 T03300047  RH  017%=      5-min Rain = 0
KHO1 150153Z 18004KT 33/05 A3002 RMK A01 T03280047  RH  017%=      5-min Rain = 0
KHO1 150154Z 18004KT 33/05 A3002 RMK A01 T03270045  RH  017%=      5-min Rain = 0
KHO1 150155Z 18004KT 33/05 A3002 RMK A01 T03270045  RH  017%=      5-min Rain = 0
KHO1 150156Z 18004KT 33/04 A3002 RMK A01 T03280044  RH  017%=      5-min Rain = 0
KHO1 150157Z 18004KT 33/05 A3002 RMK A01 T03270047  RH  017%=      5-min Rain = 0
KHO1 150158Z 18004KT 33/05 A3002 RMK A01 T03270052  RH  018%=      5-min Rain = 0
KHO1 150159Z 18003KT 33/05 A3002 RMK A01 T03260050  RH  018%=      5-min Rain = 0
KHO1 150200Z 18003KT 33/05 A3002 RMK A01 T03250051  RH  018%=      5-min Rain = 0
KHO1 150201Z 18003KT 32/05 A3002 RMK A01 T03240047  RH  018%=      5-min Rain = 0
KHO1 150202Z 18003KT 32/05 A3003 RMK A01 T03240047  RH  018%=      5-min Rain = 0
KHO1 150203Z 18003KT 32/05 A3003 RMK A01 T03240048  RH  018%=      5-min Rain = 0
KHO1 150204Z 18003KT 32/05 A3002 RMK A01 T03240046  RH  017%=      5-min Rain = 0
KHO1 150205Z 18003KT 32/05 A3003 RMK A01 T03240045  RH  017%=      5-min Rain = 0
KHO1 150206Z 18003KT 32/05 A3003 RMK A01 T03240048  RH  018%=      5-min Rain = 0
KHO1 150207Z 18003KT 32/05 A3003 RMK A01 T03240049  RH  018%=      5-min Rain = 0
KHO1 150208Z 18003KT 32/05 A3003 RMK A01 T03230048  RH  018%=      5-min Rain = 0
KHO1 150209Z 17003KT 32/05 A3003 RMK A01 T03230049  RH  018%=      5-min Rain = 0
KHO1 150210Z 18003KT 32/05 A3003 RMK A01 T03230049  RH  018%=      5-min Rain = 0
KHO1 150211Z 18003KT 32/05 A3003 RMK A01 T03230048  RH  018%=      5-min Rain = 0
KHO1 150212Z 18002KT 32/05 A3003 RMK A01 T03220048  RH  018%=      5-min Rain = 0
KHO1 150213Z 18002KT 32/05 A3003 RMK A01 T03220046  RH  018%=      5-min Rain = 0
KHO1 150214Z 18002KT 32/05 A3003 RMK A01 T03220046  RH  018%=      5-min Rain = 0
KHO1 150215Z 18002KT 32/05 A3003 RMK A01 T03220046  RH  018%=      5-min Rain = 0
KHO1 150216Z 18002KT 32/05 A3003 RMK A01 T03220047  RH  018%=      5-min Rain = 0
KHO1 150217Z 18002KT 32/05 A3003 RMK A01 T03210046  RH  018%=      5-min Rain = 0
KHO1 150218Z 18002KT 32/05 A3003 RMK A01 T03210046  RH  018%=      5-min Rain = 0
KHO1 150219Z 18003KT 32/05 A3003 RMK A01 T03210047  RH  018%=      5-min Rain = 0
KHO1 150220Z 18003KT 32/05 A3003 RMK A01 T03210046  RH  018%=      5-min Rain = 0
KHO1 150221Z 18002KT 32/04 A3003 RMK A01 T03210044  RH  017%=      5-min Rain = 0
KHO1 150222Z 18002KT 32/04 A3003 RMK A01 T03210043  RH  017%=      5-min Rain = 0
KHO1 150223Z 18002KT 32/04 A3003 RMK A01 T03220041  RH  017%=      5-min Rain = 0
KHO1 150224Z 18002KT 32/04 A3003 RMK A01 T03220041  RH  017%=      5-min Rain = 0
KHO1 150225Z 18001KT 32/04 A3003 RMK A01 T03230041  RH  017%=      5-min Rain = 0
KHO1 150226Z 18001KT 32/04 A3003 RMK A01 T03230042  RH  017%=      5-min Rain = 0
KHO1 150227Z 27003KT 32/05 A3004 RMK A01 T03240048  RH  018%=      5-min Rain = 0
KHO1 150228Z 31008KT 32/07 A3004 RMK A01 T03230068  RH  020%=      5-min Rain = 0
KHO1 150229Z 33016G21KT 32/06 A3005 RMK A01 T03180064  RH  020%=      5-min Rain = 0
KHO1 150230Z 31010KT 32/06 A3005 RMK A01 T03160064  RH  021%=      5-min Rain = 0
KHO1 150231Z 33018KT 32/07 A3005 RMK A01 T03150070  RH  022%=      5-min Rain = 0
KHO1 150232Z 34021G27KT 31/07 A3005 RMK A01 T03130071  RH  022%=      5-min Rain = 0
KHO1 150233Z 02025G35KT 31/08 A3004 RMK A01 T03100075  RH  023%=      5-min Rain = 0
KHO1 150234Z 03028G35KT 31/08 A3004 RMK A01 T03050080  RH  025%=      5-min Rain = 0
KHO1 150235Z 03032G38KT 30/08 A3004 RMK A01 T03000081  RH  025%=      5-min Rain = 0
KHO1 150236Z 03029G34KT 30/08 A3004 RMK A01 T02980081  RH  026%=      5-min Rain = 0
KHO1 150237Z 03027G33KT 30/08 A3004 RMK A01 T02960083  RH  026%=      5-min Rain = 0
KHO1 150238Z 03026G34KT 30/08 A3005 RMK A01 T02950083  RH  027%=      5-min Rain = 0
KHO1 150239Z 03027KT 29/08 A3005 RMK A01 T02940084  RH  027%=      5-min Rain = 0
KHO1 150240Z 03022KT 29/08 A3006 RMK A01 T02930084  RH  027%=      5-min Rain = 0
KHO1 150241Z 02021G26KT 29/08 A3006 RMK A01 T02930084  RH  027%=      5-min Rain = 0
KHO1 150242Z 02020G26KT 29/08 A3006 RMK A01 T02940083  RH  027%=      5-min Rain = 0
KHO1 150243Z 02015G20KT 29/08 A3007 RMK A01 T02940084  RH  027%=      5-min Rain = 0
KHO1 150244Z 02014G19KT 29/08 A3006 RMK A01 T02940084  RH  027%=      5-min Rain = 0
KHO1 150245Z 02018KT 29/08 A3006 RMK A01 T02940083  RH  027%=      5-min Rain = 0
KHO1 150246Z 02020G27KT 30/08 A3006 RMK A01 T02950081  RH  026%=      5-min Rain = 0
KHO1 150247Z 03020KT 30/08 A3006 RMK A01 T02960081  RH  026%=      5-min Rain = 0
KHO1 150248Z 03019KT 30/08 A3006 RMK A01 T02960080  RH  026%=      5-min Rain = 0
KHO1 150249Z 02019G26KT 30/08 A3007 RMK A01 T02950080  RH  026%=      5-min Rain = 0
KHO1 150250Z 03022G29KT 30/08 A3006 RMK A01 T02950078  RH  026%=      5-min Rain = 0
KHO1 150251Z 03023G28KT 29/08 A3006 RMK A01 T02940077  RH  026%=      5-min Rain = 0
KHO1 150252Z 04021KT 29/08 A3007 RMK A01 T02940077  RH  026%=      5-min Rain = 0
KHO1 150253Z 04025G33KT 29/08 A3007 RMK A01 T02940077  RH  026%=      5-min Rain = 0
KHO1 150254Z 04020G27KT 29/08 A3007 RMK A01 T02930078  RH  026%=      5-min Rain = 0
KHO1 150255Z 04020G26KT 29/08 A3007 RMK A01 T02920078  RH  026%=      5-min Rain = 0
KHO1 150256Z 04019G26KT 29/08 A3007 RMK A01 T02920079  RH  026%=      5-min Rain = 0
KHO1 150257Z 04025G35KT 29/08 A3007 RMK A01 T02920078  RH  026%=      5-min Rain = 0
KHO1 150258Z 04024G31KT 29/08 A3007 RMK A01 T02910078  RH  026%=      5-min Rain = 0
KHO1 150259Z 04026G34KT 29/08 A3007 RMK A01 T02910079  RH  026%=      5-min Rain = 0
KHO1 150300Z 04021G27KT 29/08 A3008 RMK A01 T02900079  RH  027%=      5-min Rain = 0
KHO1 150301Z 03018KT 29/08 A3008 RMK A01 T02900080  RH  027%=      5-min Rain = 0
KHO1 150302Z 04021G29KT 29/08 A3008 RMK A01 T02890080  RH  027%=      5-min Rain = 0
KHO1 150303Z 04020G26KT 29/08 A3008 RMK A01 T02880080  RH  027%=      5-min Rain = 0
KHO1 150304Z 04022G29KT 29/08 A3007 RMK A01 T02880081  RH  027%=      5-min Rain = 0
KHO1 150305Z 04020G27KT 29/08 A3007 RMK A01 T02870081  RH  027%=      5-min Rain = 0
KHO1 150306Z 04025KT 29/08 A3007 RMK A01 T02870081  RH  027%=      5-min Rain = 0
KHO1 150307Z 03022G29KT 29/08 A3007 RMK A01 T02870081  RH  028%=      5-min Rain = 0
KHO1 150308Z 04025G33KT 29/08 A3007 RMK A01 T02870081  RH  028%=      5-min Rain = 0
KHO1 150309Z 04019KT 29/08 A3008 RMK A01 T02860082  RH  028%=      5-min Rain = 0
KHO1 150310Z 04023G28KT 29/08 A3008 RMK A01 T02860082  RH  028%=      5-min Rain = 0
KHO1 150311Z 04026KT 29/08 A3008 RMK A01 T02860082  RH  028%=      5-min Rain = 0
KHO1 150312Z 04022G27KT 29/08 A3008 RMK A01 T02860082  RH  028%=      5-min Rain = 0
KHO1 150313Z 04021G29KT 29/08 A3008 RMK A01 T02860082  RH  028%=      5-min Rain = 0
KHO1 150314Z 04021G29KT 29/08 A3008 RMK A01 T02860081  RH  028%=      5-min Rain = 0
KHO1 150315Z 04019KT 29/08 A3008 RMK A01 T02860082  RH  028%=      5-min Rain = 0
KHO1 150316Z 05018G26KT 29/08 A3008 RMK A01 T02850081  RH  028%=      5-min Rain = 0
KHO1 150317Z 04021G31KT 29/08 A3008 RMK A01 T02850081  RH  028%=      5-min Rain = 0
KHO1 150318Z 05020G27KT 29/08 A3008 RMK A01 T02850081  RH  028%=      5-min Rain = 0
KHO1 150319Z 05017G23KT 29/08 A3008 RMK A01 T02850081  RH  028%=      5-min Rain = 0
KHO1 150320Z 04018G23KT 29/08 A3008 RMK A01 T02860080  RH  028%=      5-min Rain = 0
KHO1 150321Z 05017KT 29/08 A3008 RMK A01 T02850080  RH  028%=      5-min Rain = 0
KHO1 150322Z 05014G22KT 29/08 A3008 RMK A01 T02850080  RH  028%=      5-min Rain = 0
KHO1 150323Z 04019G26KT 29/08 A3008 RMK A01 T02850080  RH  028%=      5-min Rain = 0
KHO1 150324Z 04016G24KT 29/08 A3008 RMK A01 T02850080  RH  027%=      5-min Rain = 0
KHO1 150325Z 05017G23KT 29/08 A3008 RMK A01 T02850079  RH  027%=      5-min Rain = 0
KHO1 150326Z 05017G22KT 29/08 A3008 RMK A01 T02860079  RH  027%=      5-min Rain = 0
KHO1 150327Z 05018G23KT 29/08 A3008 RMK A01 T02860078  RH  027%=      5-min Rain = 0
KHO1 150328Z 04018G24KT 29/08 A3008 RMK A01 T02860078  RH  027%=      5-min Rain = 0
KHO1 150329Z 05018KT 29/08 A3008 RMK A01 T02860078  RH  027%=      5-min Rain = 0
KHO1 150330Z 04021G29KT 29/08 A3008 RMK A01 T02860078  RH  027%=      5-min Rain = 0
KHO1 150331Z 05019G26KT 29/08 A3008 RMK A01 T02860077  RH  027%=      5-min Rain = 0
KHO1 150332Z 04017G25KT 29/08 A3008 RMK A01 T02870077  RH  027%=      5-min Rain = 0
KHO1 150333Z 05014G24KT 29/08 A3008 RMK A01 T02860077  RH  027%=      5-min Rain = 0
KHO1 150334Z 05017KT 29/08 A3008 RMK A01 T02860076  RH  027%=      5-min Rain = 0
KHO1 150335Z 05015G20KT 29/08 A3008 RMK A01 T02860077  RH  027%=      5-min Rain = 0
KHO1 150336Z 05015KT 29/08 A3008 RMK A01 T02860077  RH  027%=      5-min Rain = 0
KHO1 150337Z 05018G27KT 29/08 A3008 RMK A01 T02860076  RH  027%=      5-min Rain = 0
KHO1 150338Z 05020G29KT 29/08 A3008 RMK A01 T02860076  RH  027%=      5-min Rain = 0
KHO1 150339Z 05013KT 29/08 A3008 RMK A01 T02860076  RH  027%=      5-min Rain = 0
KHO1 150340Z 04018G23KT 29/08 A3008 RMK A01 T02850076  RH  027%=      5-min Rain = 0
KHO1 150341Z 05018G23KT 29/08 A3008 RMK A01 T02860076  RH  027%=      5-min Rain = 0
KHO1 150342Z 05018G25KT 29/08 A3008 RMK A01 T02860076  RH  027%=      5-min Rain = 0
KHO1 150343Z 05016KT 29/08 A3008 RMK A01 T02860076  RH  027%=      5-min Rain = 0
KHO1 150344Z 05019G26KT 29/08 A3008 RMK A01 T02870076  RH  026%=      5-min Rain = 0
KHO1 150345Z 05018G24KT 29/08 A3008 RMK A01 T02870076  RH  026%=      5-min Rain = 0
KHO1 150346Z 05018G27KT 29/08 A3008 RMK A01 T02870076  RH  026%=      5-min Rain = 0
KHO1 150347Z 05018G25KT 29/08 A3008 RMK A01 T02870076  RH  026%=      5-min Rain = 0
KHO1 150348Z 05016G24KT 29/08 A3008 RMK A01 T02870076  RH  027%=      5-min Rain = 0
KHO1 150349Z 05014KT 29/08 A3008 RMK A01 T02860076  RH  027%=      5-min Rain = 0
KHO1 150350Z 06014G20KT 29/08 A3008 RMK A01 T02860077  RH  027%=      5-min Rain = 0
KHO1 150351Z 06013G21KT 29/08 A3008 RMK A01 T02860077  RH  027%=      5-min Rain = 0
KHO1 150352Z 05012G21KT 29/08 A3008 RMK A01 T02860077  RH  027%=      5-min Rain = 0
KHO1 150353Z 06015G23KT 29/08 A3008 RMK A01 T02860077  RH  027%=      5-min Rain = 0
KHO1 150354Z 05014G20KT 29/08 A3008 RMK A01 T02860077  RH  027%=      5-min Rain = 0
KHO1 150355Z 06014G19KT 29/08 A3008 RMK A01 T02850078  RH  027%=      5-min Rain = 0
KHO1 150356Z 05016G26KT 29/08 A3008 RMK A01 T02850078  RH  027%=      5-min Rain = 0
KHO1 150357Z 05018G26KT 28/08 A3008 RMK A01 T02840078  RH  027%=      5-min Rain = 0
KHO1 150358Z 05018KT 28/08 A3008 RMK A01 T02840078  RH  027%=      5-min Rain = 0
KHO1 150359Z 05018KT 28/08 A3008 RMK A01 T02840079  RH  027%=      5-min Rain = 0
KHO1 150400Z 06016G23KT 28/08 A3008 RMK A01 T02840079  RH  027%=      5-min Rain = 0
KHO1 150401Z 05017G26KT 28/08 A3008 RMK A01 T02840079  RH  028%=      5-min Rain = 0
KHO1 150402Z 05019G24KT 28/08 A3008 RMK A01 T02840079  RH  028%=      5-min Rain = 0
KHO1 150403Z 05014KT 28/08 A3009 RMK A01 T02830080  RH  028%=      5-min Rain = 0
KHO1 150404Z 05014G21KT 28/08 A3008 RMK A01 T02820080  RH  028%=      5-min Rain = 0
KHO1 150405Z 06018G24KT 28/08 A3008 RMK A01 T02820080  RH  028%=      5-min Rain = 0
KHO1 150406Z 06019G24KT 28/08 A3008 RMK A01 T02820080  RH  028%=      5-min Rain = 0
KHO1 150407Z 06017G23KT 28/08 A3008 RMK A01 T02820080  RH  028%=      5-min Rain = 0
KHO1 150408Z 06017G27KT 28/08 A3008 RMK A01 T02820081  RH  028%=      5-min Rain = 0
KHO1 150409Z 06014G26KT 28/08 A3008 RMK A01 T02820081  RH  028%=      5-min Rain = 0
KHO1 150410Z 06014G22KT 28/08 A3009 RMK A01 T02820081  RH  028%=      5-min Rain = 0
KHO1 150411Z 06014KT 28/08 A3008 RMK A01 T02810081  RH  028%=      5-min Rain = 0
KHO1 150412Z 06012G18KT 28/08 A3009 RMK A01 T02810081  RH  028%=      5-min Rain = 0
KHO1 150413Z 06014G19KT 28/08 A3009 RMK A01 T02810081  RH  028%=      5-min Rain = 0
KHO1 150414Z 05015G24KT 28/08 A3009 RMK A01 T02810081  RH  028%=      5-min Rain = 0
KHO1 150415Z 06017KT 28/08 A3008 RMK A01 T02820081  RH  028%=      5-min Rain = 0
KHO1 150416Z 06015KT 28/08 A3009 RMK A01 T02820081  RH  028%=      5-min Rain = 0
KHO1 150417Z 06013G21KT 28/08 A3009 RMK A01 T02820081  RH  028%=      5-min Rain = 0
KHO1 150418Z 06013KT 28/08 A3009 RMK A01 T02810081  RH  028%=      5-min Rain = 0
KHO1 150419Z 06013KT 28/08 A3009 RMK A01 T02810081  RH  028%=      5-min Rain = 0
KHO1 150420Z 07011KT 28/08 A3009 RMK A01 T02810082  RH  029%=      5-min Rain = 0
KHO1 150421Z 06011KT 28/08 A3009 RMK A01 T02800082  RH  029%=      5-min Rain = 0
KHO1 150422Z 07012KT 28/08 A3009 RMK A01 T02800082  RH  029%=      5-min Rain = 0
KHO1 150423Z 07012KT 28/08 A3009 RMK A01 T02800082  RH  029%=      5-min Rain = 0
KHO1 150424Z 06012G17KT 28/08 A3009 RMK A01 T02800082  RH  029%=      5-min Rain = 0
KHO1 150425Z 06011G17KT 28/08 A3009 RMK A01 T02790082  RH  029%=      5-min Rain = 0
KHO1 150426Z 06013G20KT 28/08 A3009 RMK A01 T02790082  RH  029%=      5-min Rain = 0
KHO1 150427Z 06014KT 28/08 A3009 RMK A01 T02790082  RH  029%=      5-min Rain = 0
KHO1 150428Z 07012KT 28/08 A3009 RMK A01 T02790083  RH  029%=      5-min Rain = 0
KHO1 150429Z 06013KT 28/08 A3009 RMK A01 T02790083  RH  029%=      5-min Rain = 0
KHO1 150430Z 06014G21KT 28/08 A3008 RMK A01 T02790083  RH  029%=      5-min Rain = 0
KHO1 150431Z 06013G18KT 28/08 A3008 RMK A01 T02790083  RH  029%=      5-min Rain = 0
KHO1 150432Z 06015G20KT 28/08 A3009 RMK A01 T02790083  RH  029%=      5-min Rain = 0
KHO1 150433Z 06012G20KT 28/08 A3009 RMK A01 T02790083  RH  029%=      5-min Rain = 0
KHO1 150434Z 06011KT 28/08 A3009 RMK A01 T02790083  RH  029%=      5-min Rain = 0
KHO1 150435Z 06011KT 28/08 A3009 RMK A01 T02790083  RH  029%=      5-min Rain = 0
KHO1 150436Z 06012KT 28/08 A3009 RMK A01 T02790083  RH  029%=      5-min Rain = 0
KHO1 150437Z 06013G19KT 28/08 A3008 RMK A01 T02800083  RH  029%=      5-min Rain = 0
KHO1 150438Z 06011KT 28/08 A3009 RMK A01 T02790083  RH  029%=      5-min Rain = 0
KHO1 150439Z 06014G21KT 28/08 A3009 RMK A01 T02790083  RH  029%=      5-min Rain = 0
KHO1 150440Z 07010KT 28/08 A3009 RMK A01 T02790083  RH  029%=      5-min Rain = 0
KHO1 150441Z 07010G17KT 28/08 A3009 RMK A01 T02790083  RH  029%=      5-min Rain = 0
KHO1 150442Z 06008KT 28/08 A3009 RMK A01 T02790083  RH  029%=      5-min Rain = 0
KHO1 150443Z 07008KT 28/08 A3009 RMK A01 T02790083  RH  029%=      5-min Rain = 0
KHO1 150444Z 07011G19KT 28/08 A3009 RMK A01 T02780083  RH  029%=      5-min Rain = 0
KHO1 150445Z 07012KT 28/08 A3008 RMK A01 T02780083  RH  029%=      5-min Rain = 0
KHO1 150446Z 06012KT 28/08 A3008 RMK A01 T02780084  RH  029%=      5-min Rain = 0
KHO1 150447Z 07010G16KT 28/08 A3008 RMK A01 T02780084  RH  029%=      5-min Rain = 0
KHO1 150448Z 07010KT 28/08 A3008 RMK A01 T02780084  RH  029%=      5-min Rain = 0
KHO1 150449Z 07013KT 28/08 A3008 RMK A01 T02780084  RH  029%=      5-min Rain = 0
KHO1 150450Z 07011KT 28/08 A3008 RMK A01 T02780084  RH  029%=      5-min Rain = 0
KHO1 150451Z 07010KT 28/08 A3008 RMK A01 T02780084  RH  030%=      5-min Rain = 0
KHO1 150452Z 06010G20KT 28/08 A3008 RMK A01 T02770084  RH  030%=      5-min Rain = 0
KHO1 150453Z 07009KT 28/09 A3008 RMK A01 T02770085  RH  030%=      5-min Rain = 0
KHO1 150454Z 07011KT 28/08 A3008 RMK A01 T02770084  RH  030%=      5-min Rain = 0
KHO1 150455Z 06012KT 28/08 A3008 RMK A01 T02770084  RH  030%=      5-min Rain = 0
KHO1 150456Z 07009G17KT 28/09 A3008 RMK A01 T02770085  RH  030%=      5-min Rain = 0
KHO1 150457Z 07014G19KT 28/08 A3008 RMK A01 T02760084  RH  030%=      5-min Rain = 0
KHO1 150458Z 07010KT 28/09 A3008 RMK A01 T02760085  RH  030%=      5-min Rain = 0
KHO1 150459Z 07011G16KT 28/09 A3008 RMK A01 T02760085  RH  030%=      5-min Rain = 0

Page generated in 0.0996 seconds.